M I D A S
Marine Information and Data Acquisition System
Tripno 1695 of the Zeeleeuw from 2009-05-18 15:11:23 to 2009-05-19 10:30:27
Back to CruiseResearch ActivitiesStationsMapUnderway DataData graphs

EquipmentUnitsComment
TimeDGPSUTC
LatitudeDGPSDM.mWGS84
LongitudeDGPSDM.mWGS84
TemperatureSBE03/SBE38deg celciusITS90
ConductivitySBE21S/mITS90
SalinitySBE21 Practical Salinity Units
ChlorophylAChelsea fluorimeterg/lCalibrated in Aceton
Missing or incorrect values are displayed as -999
Sea surface data collected by the RV Zeeleeuw from 2009-05-18 15:14:39 to 2009-05-20 09:16:23
                                                                                    Next 1000 lines
Time Latitude Longitude Temperature Conductivity Salinity ChlorophylA
2009-05-18 15:14:49 51°13.663 2°55.956 -999 0.094074 0.488833 -0.58268
2009-05-18 15:14:54 51°13.664 2°55.953 -999 0.094074 0.488833 -0.58268
2009-05-18 15:14:59 51°13.665 2°55.95 -999 0.094074 0.488833 -0.58268
2009-05-18 15:15:05 51°13.666 2°55.944 -999 0.094074 0.488833 -0.58268
2009-05-18 15:15:10 51°13.668 2°55.94 -999 0.094074 0.488833 -0.58268
2009-05-18 15:15:16 51°13.669 2°55.934 -999 0.094074 0.488833 -0.58268
2009-05-18 15:15:22 51°13.671 2°55.927 -999 0.094074 0.488833 -0.58268
2009-05-18 15:15:28 51°13.673 2°55.92 -999 0.094074 0.488841 -0.58268
2009-05-18 15:15:33 51°13.674 2°55.914 -999 0.094074 0.488841 -0.58268
2009-05-18 15:15:38 51°13.675 2°55.907 -999 0.094074 0.488841 -0.58268
2009-05-18 15:15:43 51°13.677 2°55.901 -999 0.094074 0.488849 -0.58268
2009-05-18 15:15:48 51°13.678 2°55.894 -999 0.094074 0.488841 -0.58268
2009-05-18 15:15:53 51°13.679 2°55.887 -999 0.094074 0.488849 -0.58268
2009-05-18 15:15:58 51°13.68 2°55.881 -999 0.094074 0.488841 -0.58268
2009-05-18 15:16:03 51°13.681 2°55.874 -999 0.094074 0.488841 -0.58268
2009-05-18 15:16:08 51°13.682 2°55.868 -999 0.094074 0.488841 -0.58268
2009-05-18 15:16:13 51°13.683 2°55.861 -999 0.094074 0.488849 -0.58268
2009-05-18 15:16:18 51°13.684 2°55.854 -999 0.094074 0.488849 -0.58268
2009-05-18 15:16:23 51°13.685 2°55.847 -999 0.094074 0.488857 -0.58268
2009-05-18 15:16:28 51°13.686 2°55.841 -999 0.094074 0.488865 -0.58268
2009-05-18 15:16:33 51°13.687 2°55.834 -999 0.094074 0.488865 -0.58268
2009-05-18 15:16:38 51°13.688 2°55.827 -999 0.094074 0.488865 -0.58268
2009-05-18 15:16:43 51°13.689 2°55.82 -999 0.094074 0.488913 -0.58268
2009-05-18 15:16:48 51°13.69 2°55.812 -999 0.09428 0.489267 -0.129967
2009-05-18 15:16:53 51°13.692 2°55.805 -999 0.094177 0.487506 0.287922
2009-05-18 15:16:58 51°13.693 2°55.798 -999 0.108997 0.56981 2.93455
2009-05-18 15:17:03 51°13.694 2°55.791 -999 0.108997 0.56981 2.93455
2009-05-18 15:17:08 51°13.695 2°55.784 -999 1.373339 8.44591 3.456911
2009-05-18 15:17:13 51°13.695 2°55.777 -999 2.163349 14.219864 4.884697
2009-05-18 15:17:18 51°13.696 2°55.771 -999 2.585361 17.905264 3.596207
2009-05-18 15:17:23 51°13.697 2°55.766 -999 2.924959 21.180037 4.431984
2009-05-18 15:17:28 51°13.698 2°55.762 -999 3.696483 28.100896 3.839975
2009-05-18 15:17:33 51°13.698 2°55.76 -999 3.696483 28.100896 3.839975
2009-05-18 15:17:38 51°13.698 2°55.758 -999 3.783871 29.311409 3.909623
2009-05-18 15:17:43 51°13.699 2°55.757 -999 3.773823 29.647831 4.04892
2009-05-18 15:17:48 51°13.699 2°55.756 -999 3.728632 29.486863 3.631031
2009-05-18 15:17:52 51°13.7 2°55.756 -999 3.759213 29.936641 3.561383
2009-05-18 15:17:57 51°13.7 2°55.756 -999 3.742941 29.914186 3.700679
2009-05-18 15:18:03 51°13.701 2°55.757 -999 3.742941 29.914186 3.700679
2009-05-18 15:18:07 51°13.702 2°55.758 -999 3.728742 29.875922 3.805151
2009-05-18 15:18:12 51°13.703 2°55.759 -999 3.732993 29.988883 3.805151
2009-05-18 15:18:17 51°13.704 2°55.76 -999 3.722525 29.952176 3.874799
2009-05-18 15:18:22 51°13.706 2°55.761 -999 3.716825 29.947206 3.839975
2009-05-18 15:18:27 51°13.707 2°55.761 -999 3.710399 29.921006 3.909623
2009-05-18 15:18:32 51°13.707 2°55.761 -999 3.710399 29.921006 3.909623
2009-05-18 15:18:37 51°13.707 2°55.76 -999 3.704492 29.904544 3.944447
2009-05-18 15:18:42 51°13.706 2°55.759 -999 3.701798 29.902798 3.979271
2009-05-18 15:18:47 51°13.705 2°55.758 -999 3.699414 29.903848 3.979271
2009-05-18 15:18:51 51°13.704 2°55.757 -999 3.697238 29.897775 3.944447
2009-05-18 15:18:56 51°13.703 2°55.756 -999 3.695891 29.893372 3.944447
2009-05-18 15:19:01 51°13.702 2°55.755 -999 3.695891 29.893372 3.944447
2009-05-18 15:19:06 51°13.701 2°55.754 -999 3.692574 29.874478 3.909623
2009-05-18 15:19:11 51°13.701 2°55.753 -999 3.688428 29.843628 3.979271
2009-05-18 15:19:16 51°13.701 2°55.752 -999 3.685319 29.830427 4.083744
2009-05-18 15:19:21 51°13.702 2°55.752 -999 3.66625 29.67049 4.153392
2009-05-18 15:19:26 51°13.703 2°55.752 -999 3.680967 29.820147 4.22304
2009-05-18 15:19:31 51°13.706 2°55.752 -999 3.680967 29.820147 4.22304
2009-05-18 15:19:36 51°13.708 2°55.751 -999 3.672987 29.778472 4.257864
2009-05-18 15:19:41 51°13.711 2°55.75 -999 3.674646 29.813331 4.22304
2009-05-18 15:19:46 51°13.715 2°55.749 -999 3.673506 29.814633 4.327512
2009-05-18 15:19:51 51°13.719 2°55.746 -999 3.672159 29.813425 4.362336
2009-05-18 15:19:56 51°13.723 2°55.743 -999 3.671744 29.816768 4.39716
2009-05-18 15:20:00 51°13.726 2°55.74 -999 3.671744 29.816768 4.39716
2009-05-18 15:20:05 51°13.731 2°55.735 -999 3.671433 29.820404 4.327512
2009-05-18 15:20:10 51°13.736 2°55.73 -999 3.671123 29.822753 4.292688
2009-05-18 15:20:15 51°13.741 2°55.725 -999 3.670293 29.819781 4.257864
2009-05-18 15:20:20 51°13.747 2°55.719 -999 3.668843 29.806042 4.22304
2009-05-18 15:20:25 51°13.753 2°55.713 -999 3.66791 29.800845 4.22304
2009-05-18 15:20:30 51°13.759 2°55.707 -999 3.66791 29.800845 4.22304
2009-05-18 15:20:35 51°13.766 2°55.7 -999 3.667081 29.796582 4.153392
2009-05-18 15:20:39 51°13.772 2°55.694 -999 3.666563 29.791905 4.22304
2009-05-18 15:20:45 51°13.781 2°55.685 -999 3.666252 29.788455 4.153392
2009-05-18 15:20:50 51°13.789 2°55.677 -999 3.665941 29.785649 4.22304
2009-05-18 15:20:55 51°13.798 2°55.67 -999 3.665319 29.783899 4.362336
2009-05-18 15:20:59 51°13.805 2°55.663 -999 3.665319 29.783899 4.362336
2009-05-18 15:21:04 51°13.814 2°55.655 -999 3.663661 29.77537 4.501632
2009-05-18 15:21:09 51°13.823 2°55.647 -999 3.656614 29.71947 4.675753
2009-05-18 15:21:14 51°13.832 2°55.638 -999 3.645421 29.624863 4.849873
2009-05-18 15:21:19 51°13.842 2°55.63 -999 3.634125 29.528051 5.023993
2009-05-18 15:21:24 51°13.852 2°55.623 -999 3.619928 29.403813 5.163289
2009-05-18 15:21:29 51°13.862 2°55.615 -999 3.619928 29.403813 5.163289
2009-05-18 15:21:35 51°13.875 2°55.606 -999 3.614436 29.354924 5.232937
2009-05-18 15:21:39 51°13.883 2°55.599 -999 3.611845 29.334106 5.267761
2009-05-18 15:21:44 51°13.893 2°55.591 -999 3.610809 29.329841 5.302586
2009-05-18 15:21:49 51°13.904 2°55.583 -999 3.611431 29.337353 5.33741
2009-05-18 15:21:54 51°13.915 2°55.575 -999 3.612882 29.352343 5.33741
2009-05-18 15:21:59 51°13.925 2°55.567 -999 3.612882 29.352343 5.33741
2009-05-18 15:22:04 51°13.936 2°55.559 -999 3.61454 29.368569 5.372234
2009-05-18 15:22:09 51°13.947 2°55.551 -999 3.616923 29.390706 5.407058
2009-05-18 15:22:14 51°13.957 2°55.543 -999 3.618581 29.408211 5.581178
2009-05-18 15:22:19 51°13.968 2°55.535 -999 3.619825 29.425166 5.616002
2009-05-18 15:22:24 51°13.979 2°55.526 -999 3.621069 29.44468 5.650826
2009-05-18 15:22:29 51°13.989 2°55.517 -999 3.621069 29.44468 5.650826
2009-05-18 15:22:34 51°14 2°55.509 -999 3.622934 29.466629 5.616002
2009-05-18 15:22:39 51°14.012 2°55.501 -999 3.62511 29.494591 5.546354
2009-05-18 15:22:44 51°14.023 2°55.494 -999 3.627079 29.515578 5.51153
2009-05-18 15:22:49 51°14.034 2°55.486 -999 3.627908 29.52371 5.407058
2009-05-18 15:22:54 51°14.045 2°55.477 -999 3.628219 29.527159 5.33741
2009-05-18 15:22:59 51°14.056 2°55.469 -999 3.628219 29.527159 5.33741
2009-05-18 15:23:04 51°14.068 2°55.461 -999 3.627597 29.51962 5.33741
2009-05-18 15:23:09 51°14.079 2°55.453 -999 3.626354 29.508384 5.267761
2009-05-18 15:23:14 51°14.091 2°55.445 -999 3.624696 29.495322 5.198113
2009-05-18 15:23:19 51°14.103 2°55.437 -999 3.623245 29.483493 5.128465
2009-05-18 15:23:24 51°14.114 2°55.428 -999 3.622312 29.473789 5.128465
2009-05-18 15:23:29 51°14.126 2°55.419 -999 3.622312 29.473789 5.128465
2009-05-18 15:23:35 51°14.14 2°55.409 -999 3.621691 29.466894 5.093641
2009-05-18 15:23:39 51°14.149 2°55.402 -999 3.621691 29.468811 4.989169
2009-05-18 15:23:44 51°14.16 2°55.392 -999 3.622623 29.477237 4.954345
2009-05-18 15:23:49 51°14.171 2°55.381 -999 3.62366 29.484042 4.919521
2009-05-18 15:23:55 51°14.183 2°55.367 -999 3.624903 29.502312 4.954345
2009-05-18 15:23:59 51°14.191 2°55.357 -999 3.624903 29.502312 4.954345
2009-05-18 15:24:04 51°14.201 2°55.345 -999 3.626561 29.523699 4.849873
2009-05-18 15:24:09 51°14.211 2°55.332 -999 3.627494 29.53213 4.849873
2009-05-18 15:24:15 51°14.223 2°55.317 -999 3.628841 29.543668 4.815049
2009-05-18 15:24:19 51°14.231 2°55.306 -999 3.629878 29.553677 4.884697
2009-05-18 15:24:23 51°14.238 2°55.295 -999 3.631017 29.565266 4.989169
2009-05-18 15:24:29 51°14.249 2°55.277 -999 3.631017 29.565266 4.989169
2009-05-18 15:24:35 51°14.26 2°55.259 -999 3.632572 29.58253 5.023993
2009-05-18 15:24:39 51°14.267 2°55.247 -999 3.633505 29.59289 5.093641
2009-05-18 15:24:44 51°14.276 2°55.232 -999 3.633505 29.595459 5.093641
2009-05-18 15:24:49 51°14.286 2°55.217 -999 3.630603 29.570499 5.058817
2009-05-18 15:24:55 51°14.297 2°55.199 -999 3.626043 29.529265 5.023993
2009-05-18 15:24:59 51°14.304 2°55.186 -999 3.626043 29.529265 5.023993
2009-05-18 15:25:04 51°14.313 2°55.17 -999 3.623349 29.504263 4.989169
2009-05-18 15:25:09 51°14.321 2°55.154 -999 3.623556 29.509979 4.919521
2009-05-18 15:25:14 51°14.33 2°55.138 -999 3.624075 29.517226 4.849873
2009-05-18 15:25:19 51°14.339 2°55.121 -999 3.625111 29.529162 4.849873
2009-05-18 15:25:24 51°14.347 2°55.104 -999 3.626458 29.544554 4.919521
2009-05-18 15:25:29 51°14.356 2°55.087 -999 3.626458 29.544554 4.919521
2009-05-18 15:25:34 51°14.365 2°55.071 -999 3.627702 29.560296 4.815049
2009-05-18 15:25:39 51°14.374 2°55.055 -999 3.630292 29.585023 4.745401
2009-05-18 15:25:44 51°14.384 2°55.04 -999 3.633816 29.616267 4.675753
2009-05-18 15:25:48 51°14.392 2°55.028 -999 3.638998 29.665745 4.536456
2009-05-18 15:25:54 51°14.405 2°55.011 -999 3.645423 29.723922 4.431984
2009-05-18 15:25:59 51°14.416 2°54.997 -999 3.645423 29.723922 4.431984
2009-05-18 15:26:04 51°14.427 2°54.982 -999 3.651123 29.774251 4.362336
2009-05-18 15:26:08 51°14.437 2°54.971 -999 3.656512 29.821772 4.327512
2009-05-18 15:26:14 51°14.451 2°54.954 -999 3.662004 29.868294 4.257864
2009-05-18 15:26:19 51°14.463 2°54.94 -999 3.668637 29.925148 4.188216
2009-05-18 15:26:24 51°14.475 2°54.926 -999 3.676099 29.990172 4.04892
2009-05-18 15:26:28 51°14.486 2°54.916 -999 3.676099 29.990172 4.04892
2009-05-18 15:26:34 51°14.501 2°54.9 -999 3.68211 30.044663 4.04892
2009-05-18 15:26:39 51°14.515 2°54.889 -999 3.687914 30.097942 3.979271
2009-05-18 15:26:44 51°14.529 2°54.878 -999 3.696309 30.176708 3.979271
2009-05-18 15:26:48 51°14.54 2°54.87 -999 3.70315 30.246003 3.944447
2009-05-18 15:26:54 51°14.558 2°54.859 -999 3.710198 30.313282 3.874799
2009-05-18 15:26:59 51°14.573 2°54.849 -999 3.710198 30.313282 3.874799
2009-05-18 15:27:04 51°14.587 2°54.84 -999 3.715484 30.361289 3.909623
2009-05-18 15:27:09 51°14.603 2°54.832 -999 3.722014 30.419286 3.874799
2009-05-18 15:27:14 51°14.618 2°54.824 -999 3.728648 30.482211 3.874799
2009-05-18 15:27:19 51°14.633 2°54.815 -999 3.734142 30.532807 3.805151
2009-05-18 15:27:24 51°14.648 2°54.808 -999 3.740568 30.592566 3.735503
2009-05-18 15:27:28 51°14.66 2°54.803 -999 3.740568 30.592566 3.735503
2009-05-18 15:27:34 51°14.679 2°54.795 -999 3.746684 30.65085 3.631031
2009-05-18 15:27:39 51°14.694 2°54.789 -999 3.751348 30.699291 3.596207
2009-05-18 15:27:44 51°14.71 2°54.783 -999 3.756635 30.74941 3.491735
2009-05-18 15:27:48 51°14.723 2°54.778 -999 3.761714 30.797659 3.387263
2009-05-18 15:27:54 51°14.742 2°54.772 -999 3.767416 30.849577 3.317614
2009-05-18 15:27:59 51°14.758 2°54.767 -999 3.767416 30.849577 3.317614
2009-05-18 15:28:04 51°14.774 2°54.762 -999 3.772702 30.8937 3.213142
2009-05-18 15:28:08 51°14.786 2°54.758 -999 3.778818 30.944031 3.10867
2009-05-18 15:28:14 51°14.805 2°54.753 -999 3.78452 30.992603 2.969374
2009-05-18 15:28:19 51°14.821 2°54.747 -999 3.791154 31.053727 2.864902
2009-05-18 15:28:24 51°14.837 2°54.743 -999 3.797478 31.114067 2.76043
2009-05-18 15:28:28 51°14.849 2°54.739 -999 3.797478 31.114067 2.76043
2009-05-18 15:28:34 51°14.868 2°54.733 -999 3.804424 31.179427 2.621133
2009-05-18 15:28:39 51°14.883 2°54.728 -999 3.811059 31.244016 2.551485
2009-05-18 15:28:44 51°14.899 2°54.724 -999 3.815828 31.289568 2.481837
2009-05-18 15:28:48 51°14.911 2°54.72 -999 3.8207 31.3354 2.516661
2009-05-18 15:28:54 51°14.93 2°54.714 -999 3.826921 31.399014 2.447013
2009-05-18 15:28:59 51°14.945 2°54.708 -999 3.826921 31.399014 2.447013
2009-05-18 15:29:04 51°14.961 2°54.704 -999 3.833763 31.470411 2.412189
2009-05-18 15:29:08 51°14.973 2°54.699 -999 3.839673 31.53265 2.412189
2009-05-18 15:29:14 51°14.992 2°54.694 -999 3.845064 31.588819 2.377365
2009-05-18 15:29:19 51°15.007 2°54.689 -999 3.850145 31.639422 2.412189
2009-05-18 15:29:24 51°15.023 2°54.684 -999 3.854603 31.685736 2.447013
2009-05-18 15:29:29 51°15.039 2°54.68 -999 3.854603 31.685736 2.447013
2009-05-18 15:29:34 51°15.054 2°54.675 -999 3.859269 31.73259 2.412189
2009-05-18 15:29:39 51°15.07 2°54.671 -999 3.862172 31.761939 2.447013
2009-05-18 15:29:44 51°15.085 2°54.666 -999 3.865386 31.794145 2.447013
2009-05-18 15:29:48 51°15.098 2°54.663 -999 3.867874 31.819019 2.412189
2009-05-18 15:29:54 51°15.116 2°54.656 -999 3.869844 31.837761 2.377365
2009-05-18 15:29:59 51°15.132 2°54.652 -999 3.869844 31.837761 2.377365
2009-05-18 15:30:04 51°15.147 2°54.647 -999 3.870881 31.850037 2.342541
2009-05-18 15:30:08 51°15.159 2°54.643 -999 3.870985 31.853071 2.342541
2009-05-18 15:30:14 51°15.178 2°54.636 -999 3.870778 31.854643 2.342541
2009-05-18 15:30:19 51°15.194 2°54.632 -999 3.869533 31.846713 2.342541
2009-05-18 15:30:24 51°15.209 2°54.626 -999 3.868911 31.846568 2.342541
2009-05-18 15:30:28 51°15.222 2°54.622 -999 3.868911 31.846568 2.342541
2009-05-18 15:30:34 51°15.24 2°54.616 -999 3.867978 31.842182 2.307717
2009-05-18 15:30:39 51°15.256 2°54.61 -999 3.866734 31.835638 2.272893
2009-05-18 15:30:44 51°15.272 2°54.605 -999 3.86549 31.827704 2.307717
2009-05-18 15:30:48 51°15.284 2°54.601 -999 3.864868 31.826167 2.272893
2009-05-18 15:30:54 51°15.303 2°54.594 -999 3.864246 31.825325 2.238069
2009-05-18 15:30:59 51°15.318 2°54.588 -999 3.864246 31.825325 2.238069
2009-05-18 15:31:04 51°15.334 2°54.583 -999 3.863313 31.82163 2.238069
2009-05-18 15:31:09 51°15.349 2°54.578 -999 3.862587 31.819142 2.272893
2009-05-18 15:31:14 51°15.365 2°54.573 -999 3.861862 31.816653 2.238069
2009-05-18 15:31:19 51°15.381 2°54.568 -999 3.860721 31.809664 2.272893
2009-05-18 15:31:24 51°15.396 2°54.561 -999 3.859166 31.799564 2.307717
2009-05-18 15:31:28 51°15.409 2°54.557 -999 3.859166 31.799564 2.307717
2009-05-18 15:31:34 51°15.427 2°54.549 -999 3.859373 31.805635 2.272893
2009-05-18 15:31:39 51°15.443 2°54.543 -999 3.858129 31.797692 2.272893
2009-05-18 15:31:44 51°15.458 2°54.536 -999 3.8573 31.790775 2.272893
2009-05-18 15:31:48 51°15.471 2°54.531 -999 3.85647 31.784553 2.238069
2009-05-18 15:31:54 51°15.489 2°54.522 -999 3.855952 31.783269 2.272893
2009-05-18 15:31:59 51°15.504 2°54.517 -999 3.855952 31.783269 2.272893
2009-05-18 15:32:04 51°15.519 2°54.508 -999 3.855226 31.780081 2.272893
2009-05-18 15:32:08 51°15.532 2°54.504 -999 3.855745 31.789008 2.168421
2009-05-18 15:32:14 51°15.55 2°54.494 -999 3.855848 31.790655 2.133597
2009-05-18 15:32:19 51°15.566 2°54.488 -999 3.854604 31.776455 2.168421
2009-05-18 15:32:24 51°15.581 2°54.479 -999 3.854915 31.775837 2.168421
2009-05-18 15:32:28 51°15.593 2°54.474 -999 3.854915 31.775837 2.168421
2009-05-18 15:32:34 51°15.612 2°54.464 -999 3.854604 31.772287 2.168421
2009-05-18 15:32:39 51°15.627 2°54.457 -999 3.854293 31.7736 2.098773
2009-05-18 15:32:44 51°15.642 2°54.449 -999 3.85419 31.777511 2.133597
2009-05-18 15:32:48 51°15.654 2°54.443 -999 3.853464 31.774322 2.098773
2009-05-18 15:32:54 51°15.673 2°54.434 -999 3.85419 31.784461 2.133597
2009-05-18 15:32:59 51°15.688 2°54.426 -999 3.85419 31.784461 2.133597
2009-05-18 15:33:04 51°15.703 2°54.419 -999 3.853257 31.782148 2.098773
2009-05-18 15:33:08 51°15.715 2°54.411 -999 3.853049 31.786502 2.063949
2009-05-18 15:33:14 51°15.734 2°54.402 -999 3.85305 31.78998 2.029124
2009-05-18 15:33:19 51°15.749 2°54.394 -999 3.853361 31.797013 1.9943
2009-05-18 15:33:24 51°15.764 2°54.385 -999 3.852531 31.796351 2.029124
2009-05-18 15:33:29 51°15.779 2°54.378 -999 3.852531 31.796351 2.029124
2009-05-18 15:33:34 51°15.795 2°54.369 -999 3.852842 31.804083 1.959476
2009-05-18 15:33:39 51°15.81 2°54.362 -999 3.852739 31.80522 1.959476
2009-05-18 15:33:44 51°15.825 2°54.354 -999 3.852428 31.807236 1.924652
2009-05-18 15:33:48 51°15.838 2°54.349 -999 3.851184 31.799281 1.924652
2009-05-18 15:33:54 51°15.856 2°54.339 -999 3.852117 31.812738 1.924652
2009-05-18 15:33:59 51°15.872 2°54.332 -999 3.852117 31.812738 1.924652
2009-05-18 15:34:04 51°15.887 2°54.325 -999 3.85191 31.812922 1.889828
2009-05-18 15:34:08 51°15.899 2°54.318 -999 3.85108 31.810174 1.889828
2009-05-18 15:34:14 51°15.918 2°54.309 -999 3.850666 31.810542 1.855004
2009-05-18 15:34:19 51°15.933 2°54.301 -999 3.85108 31.817843 1.82018
2009-05-18 15:34:24 51°15.948 2°54.293 -999 3.850769 31.817772 1.82018
2009-05-18 15:34:28 51°15.961 2°54.288 -999 3.850769 31.817772 1.82018
2009-05-18 15:34:34 51°15.979 2°54.279 -999 3.849629 31.811464 1.785356
2009-05-18 15:34:39 51°15.995 2°54.274 -999 3.850666 31.823097 1.750532
2009-05-18 15:34:44 51°16.011 2°54.269 -999 3.84994 31.819907 1.785356
2009-05-18 15:34:48 51°16.023 2°54.265 -999 3.850251 31.823468 1.750532
2009-05-18 15:34:54 51°16.042 2°54.26 -999 3.850458 31.826074 1.750532
2009-05-18 15:34:59 51°16.058 2°54.257 -999 3.850458 31.826074 1.750532
2009-05-18 15:35:04 51°16.074 2°54.255 -999 3.850251 31.823468 1.715708
2009-05-18 15:35:09 51°16.09 2°54.253 -999 3.851599 31.837268 1.785356
2009-05-18 15:35:14 51°16.106 2°54.251 -999 3.852428 31.846299 1.715708
2009-05-18 15:35:19 51°16.121 2°54.25 -999 3.85388 31.861058 1.750532
2009-05-18 15:35:24 51°16.135 2°54.249 -999 3.855228 31.874165 1.715708
2009-05-18 15:35:28 51°16.146 2°54.25 -999 3.855228 31.874165 1.715708
2009-05-18 15:35:34 51°16.162 2°54.249 -999 3.85699 31.890392 1.715708
2009-05-18 15:35:39 51°16.173 2°54.249 -999 3.85896 31.91063 1.715708
2009-05-18 15:35:44 51°16.184 2°54.249 -999 3.858649 31.909866 1.680884
2009-05-18 15:35:48 51°16.192 2°54.25 -999 3.861552 31.938003 1.680884
2009-05-18 15:35:54 51°16.203 2°54.251 -999 3.861967 31.943224 1.64606
2009-05-18 15:35:59 51°16.211 2°54.252 -999 3.861967 31.943224 1.64606
2009-05-18 15:36:04 51°16.219 2°54.254 -999 3.864352 31.965892 1.64606
2009-05-18 15:36:08 51°16.225 2°54.256 -999 3.865492 31.9771 1.576412
2009-05-18 15:36:15 51°16.234 2°54.26 -999 3.866529 31.987354 1.611236
2009-05-18 15:36:19 51°16.238 2°54.261 -999 3.866425 31.984995 1.576412
2009-05-18 15:36:24 51°16.243 2°54.264 -999 3.8657 31.975502 1.576412
2009-05-18 15:36:28 51°16.246 2°54.265 -999 3.8657 31.975502 1.576412
2009-05-18 15:36:34 51°16.25 2°54.267 -999 3.867151 31.985365 1.576412
2009-05-18 15:36:39 51°16.253 2°54.267 -999 3.867151 31.981857 1.611236
2009-05-18 15:36:44 51°16.256 2°54.268 -999 3.866218 31.969757 1.611236
2009-05-18 15:36:48 51°16.258 2°54.268 -999 3.867255 31.972293 1.541588
2009-05-18 15:36:54 51°16.261 2°54.268 -999 3.867047 31.966178 1.541588
2009-05-18 15:36:59 51°16.263 2°54.268 -999 3.867047 31.966178 1.541588
2009-05-18 15:37:04 51°16.265 2°54.267 -999 3.867773 31.977767 1.576412
2009-05-18 15:37:08 51°16.267 2°54.268 -999 3.868499 31.987255 1.611236
2009-05-18 15:37:14 51°16.269 2°54.267 -999 3.868084 31.98554 1.576412
2009-05-18 15:37:19 51°16.271 2°54.267 -999 3.867669 31.986632 1.506764
2009-05-18 15:37:24 51°16.272 2°54.266 -999 3.869328 32.006124 1.541588
2009-05-18 15:37:29 51°16.274 2°54.266 -999 3.869328 32.006124 1.541588
2009-05-18 15:37:34 51°16.275 2°54.266 -999 3.86964 32.009692 1.541588
2009-05-18 15:37:39 51°16.277 2°54.265 -999 3.869329 32.009635 1.541588
2009-05-18 15:37:44 51°16.278 2°54.265 -999 3.869432 32.015508 1.506764
2009-05-18 15:37:48 51°16.279 2°54.264 -999 3.869225 32.016407 1.506764
2009-05-18 15:37:54 51°16.281 2°54.264 -999 3.869951 32.022393 1.541588
2009-05-18 15:37:59 51°16.282 2°54.263 -999 3.869951 32.022393 1.541588
2009-05-18 15:38:04 51°16.283 2°54.263 -999 3.869121 32.012641 1.506764
2009-05-18 15:38:08 51°16.284 2°54.263 -999 3.870469 32.025062 1.506764
2009-05-18 15:38:15 51°16.286 2°54.262 -999 3.869847 32.021437 1.506764
2009-05-18 15:38:19 51°16.286 2°54.262 -999 3.871091 32.031498 1.506764
2009-05-18 15:38:24 51°16.287 2°54.262 -999 3.870884 32.029587 1.506764
2009-05-18 15:38:28 51°16.288 2°54.262 -999 3.870884 32.029587 1.506764
2009-05-18 15:38:34 51°16.289 2°54.261 -999 3.871091 32.035013 1.506764
2009-05-18 15:38:39 51°16.29 2°54.261 -999 3.870677 32.032597 1.506764
2009-05-18 15:38:44 51°16.291 2°54.261 -999 3.871299 32.042551 1.506764
2009-05-18 15:38:48 51°16.292 2°54.261 -999 3.871195 32.043002 1.437116
2009-05-18 15:38:54 51°16.292 2°54.26 -999 3.87161 32.045418 1.47194
2009-05-18 15:38:59 51°16.293 2°54.26 -999 3.87161 32.045418 1.47194
2009-05-18 15:39:04 51°16.294 2°54.26 -999 3.871091 32.039936 1.367467
2009-05-18 15:39:09 51°16.295 2°54.259 -999 3.871921 32.048989 1.367467
2009-05-18 15:39:14 51°16.295 2°54.259 -999 3.871714 32.049188 1.367467
2009-05-18 15:39:19 51°16.296 2°54.259 -999 3.871921 32.053211 1.367467
2009-05-18 15:39:24 51°16.296 2°54.258 -999 3.871817 32.050848 1.367467
2009-05-18 15:39:28 51°16.297 2°54.258 -999 3.871817 32.050848 1.367467
2009-05-18 15:39:34 51°16.297 2°54.258 -999 3.871921 32.050396 1.332643
2009-05-18 15:39:39 51°16.298 2°54.258 -999 3.872025 32.053463 1.367467
2009-05-18 15:39:44 51°16.298 2°54.258 -999 3.872232 32.056783 1.332643
2009-05-18 15:39:48 51°16.299 2°54.257 -999 3.870988 32.044608 1.297819
2009-05-18 15:39:54 51°16.299 2°54.257 -999 3.870573 32.040784 1.262995
2009-05-18 15:39:59 51°16.299 2°54.258 -999 3.870573 32.040784 1.262995
2009-05-18 15:40:04 51°16.3 2°54.258 -999 3.87161 32.051751 1.297819
2009-05-18 15:40:08 51°16.301 2°54.258 -999 3.871091 32.044156 1.262995
2009-05-18 15:40:14 51°16.301 2°54.258 -999 3.871506 32.04798 1.297819
2009-05-18 15:40:19 51°16.302 2°54.258 -999 3.872025 32.057687 1.228171
2009-05-18 15:40:24 51°16.302 2°54.259 -999 3.870573 32.047117 1.228171
2009-05-18 15:40:28 51°16.302 2°54.258 -999 3.870573 32.047117 1.228171
2009-05-18 15:40:34 51°16.303 2°54.259 -999 3.871299 32.055922 1.228171
2009-05-18 15:40:39 51°16.303 2°54.259 -999 3.872128 32.065684 1.262995
2009-05-18 15:40:44 51°16.304 2°54.259 -999 3.872025 32.059799 1.262995
2009-05-18 15:40:48 51°16.304 2°54.259 -999 3.872232 32.058895 1.193347
2009-05-18 15:40:54 51°16.304 2°54.259 -999 3.872439 32.062215 1.193347
2009-05-18 15:40:59 51°16.304 2°54.26 -999 3.872439 32.062215 1.193347
2009-05-18 15:41:04 51°16.304 2°54.261 -999 3.872336 32.061963 1.158523
2009-05-18 15:41:08 51°16.303 2°54.261 -999 3.872543 32.062467 1.158523
2009-05-18 15:41:14 51°16.302 2°54.262 -999 3.871921 32.052507 1.158523
2009-05-18 15:41:19 51°16.302 2°54.263 -999 3.871817 32.045923 1.158523
2009-05-18 15:41:24 51°16.301 2°54.264 -999 3.872854 32.058295 1.123699
2009-05-18 15:41:29 51°16.3 2°54.265 -999 3.872854 32.058295 1.123699
2009-05-18 15:41:34 51°16.299 2°54.266 -999 3.872854 32.058295 1.123699
2009-05-18 15:41:39 51°16.298 2°54.267 -999 3.872958 32.059955 1.123699
2009-05-18 15:41:44 51°16.296 2°54.268 -999 3.872854 32.062519 1.123699
2009-05-18 15:41:50 51°16.294 2°54.27 -999 3.871714 32.054114 1.123699
2009-05-18 15:41:55 51°16.292 2°54.27 -999 3.872854 32.068152 1.088875
2009-05-18 15:42:00 51°16.29 2°54.271 -999 3.872854 32.068152 1.088875
2009-05-18 15:42:05 51°16.288 2°54.272 -999 3.871403 32.058286 1.054051
2009-05-18 15:42:10 51°16.286 2°54.272 -999 3.872751 32.071422 1.019227
2009-05-18 15:42:15 51°16.284 2°54.272 -999 3.872854 32.069561 1.019227
2009-05-18 15:42:20 51°16.282 2°54.273 -999 3.872543 32.066692 1.019227
2009-05-18 15:42:24 51°16.281 2°54.273 -999 3.872751 32.069309 1.019227
2009-05-18 15:42:30 51°16.278 2°54.273 -999 3.872128 32.060051 1.019227
2009-05-18 15:42:35 51°16.276 2°54.273 -999 3.872128 32.060051 1.019227
2009-05-18 15:42:39 51°16.275 2°54.273 -999 3.872232 32.058191 1.054051
2009-05-18 15:42:44 51°16.273 2°54.274 -999 3.873165 32.069612 0.984403
2009-05-18 15:42:49 51°16.272 2°54.274 -999 3.873165 32.073134 1.019227
2009-05-18 15:42:55 51°16.27 2°54.274 -999 3.872025 32.06332 0.984403
2009-05-18 15:42:59 51°16.269 2°54.274 -999 3.872025 32.06332 0.984403
2009-05-18 15:43:04 51°16.267 2°54.274 -999 3.872958 32.074039 0.984403
2009-05-18 15:43:09 51°16.266 2°54.275 -999 3.872854 32.075197 0.984403
2009-05-18 15:43:15 51°16.265 2°54.275 -999 3.872958 32.076858 1.019227
2009-05-18 15:43:19 51°16.264 2°54.275 -999 3.871195 32.062008 0.984403
2009-05-18 15:43:24 51°16.263 2°54.275 -999 3.872647 32.073284 0.984403
2009-05-18 15:43:29 51°16.261 2°54.275 -999 3.872647 32.073284 0.984403
2009-05-18 15:43:35 51°16.26 2°54.275 -999 3.872647 32.07117 0.984403
2009-05-18 15:43:39 51°16.259 2°54.275 -999 3.87244 32.069962 1.019227
2009-05-18 15:43:44 51°16.258 2°54.276 -999 3.872336 32.06971 1.054051
2009-05-18 15:43:49 51°16.257 2°54.276 -999 3.872751 32.07424 0.984403
2009-05-18 15:43:55 51°16.256 2°54.276 -999 3.872647 32.075398 0.984403
2009-05-18 15:43:59 51°16.255 2°54.277 -999 3.872647 32.075398 0.984403
2009-05-18 15:44:04 51°16.254 2°54.277 -999 3.872543 32.077965 1.019227
2009-05-18 15:44:09 51°16.254 2°54.277 -999 3.872232 32.075095 1.019227
2009-05-18 15:44:14 51°16.253 2°54.278 -999 3.871818 32.071269 0.984403
2009-05-18 15:44:19 51°16.252 2°54.278 -999 3.871299 32.067896 1.019227
2009-05-18 15:44:24 51°16.251 2°54.279 -999 3.872025 32.073182 1.019227
2009-05-18 15:44:29 51°16.25 2°54.279 -999 3.872025 32.073182 1.019227
2009-05-18 15:44:35 51°16.249 2°54.281 -999 3.870884 32.061956 0.984403
2009-05-18 15:44:39 51°16.249 2°54.281 -999 3.871092 32.063165 0.984403
2009-05-18 15:44:44 51°16.248 2°54.282 -999 3.871403 32.065329 0.949579
2009-05-18 15:44:49 51°16.248 2°54.282 -999 3.871818 32.071269 0.949579
2009-05-18 15:44:54 51°16.247 2°54.283 -999 3.872025 32.073887 0.949579
2009-05-18 15:44:59 51°16.246 2°54.284 -999 3.872025 32.073887 0.949579
2009-05-18 15:45:04 51°16.246 2°54.284 -999 3.872025 32.073182 0.949579
2009-05-18 15:45:09 51°16.245 2°54.285 -999 3.87047 32.059539 0.949579
2009-05-18 15:45:14 51°16.245 2°54.286 -999 3.871818 32.073383 0.949579
2009-05-18 15:45:19 51°16.244 2°54.287 -999 3.871507 32.071923 0.914755
2009-05-18 15:45:24 51°16.243 2°54.288 -999 3.870159 32.059487 0.949579
2009-05-18 15:45:28 51°16.243 2°54.288 -999 3.870159 32.059487 0.949579
2009-05-18 15:45:34 51°16.243 2°54.289 -999 3.871921 32.07293 0.949579
2009-05-18 15:45:39 51°16.242 2°54.29 -999 3.872129 32.070616 0.914755
2009-05-18 15:45:44 51°16.242 2°54.291 -999 3.871299 32.061555 0.914755
2009-05-18 15:45:48 51°16.241 2°54.291 -999 3.872232 32.068049 0.914755
2009-05-18 15:45:54 51°16.241 2°54.292 -999 3.871506 32.062059 0.914755
2009-05-18 15:45:59 51°16.24 2°54.293 -999 3.871506 32.062059 0.914755
2009-05-18 15:46:04 51°16.24 2°54.294 -999 3.871506 32.060651 0.879931
2009-05-18 15:46:08 51°16.239 2°54.295 -999 3.872128 32.067798 0.879931
2009-05-18 15:46:14 51°16.239 2°54.296 -999 3.872025 32.066137 0.879931
2009-05-18 15:46:19 51°16.238 2°54.297 -999 3.871817 32.062111 0.879931
2009-05-18 15:46:23 51°16.238 2°54.297 -999 3.872232 32.066641 0.879931
2009-05-18 15:46:28 51°16.238 2°54.299 -999 3.872232 32.066641 0.879931
2009-05-18 15:46:34 51°16.238 2°54.3 -999 3.871299 32.059443 0.845107
2009-05-18 15:46:39 51°16.237 2°54.3 -999 3.869433 32.042934 0.845107
2009-05-18 15:46:44 51°16.237 2°54.301 -999 3.869847 32.046759 0.845107
2009-05-18 15:46:48 51°16.237 2°54.302 -999 3.871506 32.059242 0.845107
2009-05-18 15:46:54 51°16.236 2°54.303 -999 3.870573 32.049229 0.810283
2009-05-18 15:46:59 51°16.236 2°54.304 -999 3.870573 32.049229 0.810283
2009-05-18 15:47:04 51°16.236 2°54.305 -999 3.871299 32.055922 0.810283
2009-05-18 15:47:08 51°16.236 2°54.306 -999 3.871195 32.054966 0.810283
2009-05-18 15:47:14 51°16.235 2°54.307 -999 3.87161 32.059495 0.810283
2009-05-18 15:47:19 51°16.235 2°54.308 -999 3.871403 32.057582 0.810283
2009-05-18 15:47:24 51°16.235 2°54.309 -999 3.871506 32.059947 0.810283
2009-05-18 15:47:28 51°16.235 2°54.309 -999 3.871506 32.059947 0.810283
2009-05-18 15:47:34 51°16.235 2°54.311 -999 3.870366 32.050132 0.775459
2009-05-18 15:47:39 51°16.235 2°54.311 -999 3.869744 32.042283 0.810283
2009-05-18 15:47:44 51°16.234 2°54.312 -999 3.871092 32.053305 0.775459
2009-05-18 15:47:48 51°16.234 2°54.313 -999 3.870055 32.045855 0.775459
2009-05-18 15:47:54 51°16.234 2°54.313 -999 3.87161 32.062311 0.775459
2009-05-18 15:47:59 51°16.234 2°54.314 -999 3.870159 32.052444 0.775459
2009-05-18 15:48:04 51°16.233 2°54.315 -999 3.870159 32.052444 0.775459
2009-05-18 15:48:08 51°16.233 2°54.315 -999 3.87161 32.070061 0.740634
2009-05-18 15:48:14 51°16.233 2°54.316 -999 3.871506 32.0684 0.740634
2009-05-18 15:48:19 51°16.233 2°54.317 -999 3.871506 32.067695 0.740634
2009-05-18 15:48:24 51°16.233 2°54.318 -999 3.871506 32.066286 0.70581
2009-05-18 15:48:28 51°16.233 2°54.318 -999 3.871506 32.066286 0.70581
2009-05-18 15:48:34 51°16.233 2°54.319 -999 3.87161 32.067947 0.70581
2009-05-18 15:48:39 51°16.233 2°54.32 -999 3.87161 32.069356 0.70581
2009-05-18 15:48:44 51°16.232 2°54.321 -999 3.87161 32.069356 0.70581
2009-05-18 15:48:48 51°16.232 2°54.321 -999 3.871714 32.071017 0.70581
2009-05-18 15:48:54 51°16.232 2°54.323 -999 3.871818 32.073383 0.740634
2009-05-18 15:48:59 51°16.232 2°54.323 -999 3.871818 32.073383 0.740634
2009-05-18 15:49:04 51°16.232 2°54.324 -999 3.871818 32.075498 0.70581
2009-05-18 15:49:08 51°16.232 2°54.324 -999 3.871818 32.077613 0.740634
2009-05-18 15:49:14 51°16.231 2°54.325 -999 3.87161 32.075699 0.70581
2009-05-18 15:49:19 51°16.231 2°54.326 -999 3.871507 32.071218 0.670986
2009-05-18 15:49:24 51°16.231 2°54.327 -999 3.871506 32.069104 0.70581
2009-05-18 15:49:28 51°16.231 2°54.328 -999 3.871506 32.069104 0.70581
2009-05-18 15:49:34 51°16.231 2°54.329 -999 3.87161 32.070061 0.70581
2009-05-18 15:49:39 51°16.231 2°54.329 -999 3.871714 32.070313 0.670986
2009-05-18 15:49:44 51°16.231 2°54.33 -999 3.871818 32.074088 0.670986
2009-05-18 15:49:48 51°16.231 2°54.331 -999 3.871714 32.075951 0.670986
2009-05-18 15:49:54 51°16.231 2°54.332 -999 3.871403 32.075196 0.70581
2009-05-18 15:49:59 51°16.232 2°54.332 -999 3.871403 32.075196 0.70581
2009-05-18 15:50:04 51°16.232 2°54.333 -999 3.871196 32.073282 0.670986
2009-05-18 15:50:08 51°16.233 2°54.333 -999 3.870988 32.069959 0.670986
2009-05-18 15:50:14 51°16.235 2°54.332 -999 3.870884 32.067593 0.670986
2009-05-18 15:50:19 51°16.236 2°54.333 -999 3.871092 32.070211 0.670986
2009-05-18 15:50:24 51°16.238 2°54.332 -999 3.871196 32.071872 0.670986
2009-05-18 15:50:28 51°16.239 2°54.331 -999 3.871196 32.071872 0.670986
2009-05-18 15:50:34 51°16.241 2°54.33 -999 3.871092 32.071621 0.670986
2009-05-18 15:50:39 51°16.243 2°54.329 -999 3.871092 32.072325 0.670986
2009-05-18 15:50:44 51°16.245 2°54.327 -999 3.870988 32.070664 0.670986
2009-05-18 15:50:48 51°16.248 2°54.325 -999 3.870988 32.069959 0.636162
2009-05-18 15:50:54 51°16.251 2°54.321 -999 3.870988 32.070664 0.670986
2009-05-18 15:50:59 51°16.255 2°54.318 -999 3.870988 32.070664 0.670986
2009-05-18 15:51:04 51°16.259 2°54.314 -999 3.870988 32.072074 0.670986
2009-05-18 15:51:08 51°16.262 2°54.311 -999 3.871196 32.076102 0.636162
2009-05-18 15:51:14 51°16.266 2°54.306 -999 3.871092 32.077261 0.636162
2009-05-18 15:51:19 51°16.271 2°54.3 -999 3.871196 32.078923 0.636162
2009-05-18 15:51:24 51°16.275 2°54.295 -999 3.871196 32.078923 0.636162
2009-05-18 15:51:28 51°16.278 2°54.291 -999 3.871196 32.078217 0.670986
2009-05-18 15:51:34 51°16.284 2°54.284 -999 3.871196 32.078217 0.670986
2009-05-18 15:51:39 51°16.289 2°54.277 -999 3.871196 32.077512 0.636162
2009-05-18 15:51:43 51°16.293 2°54.27 -999 3.871299 32.079174 0.636162
2009-05-18 15:51:49 51°16.299 2°54.26 -999 3.871299 32.080585 0.670986
2009-05-18 15:51:55 51°16.305 2°54.247 -999 3.871092 32.079376 0.670986
2009-05-18 15:51:59 51°16.31 2°54.237 -999 3.871092 32.079376 0.670986
2009-05-18 15:52:04 51°16.316 2°54.225 -999 3.870885 32.076052 0.670986
2009-05-18 15:52:09 51°16.322 2°54.211 -999 3.870885 32.077462 0.70581
2009-05-18 15:52:14 51°16.329 2°54.197 -999 3.870677 32.074843 0.740634
2009-05-18 15:52:19 51°16.336 2°54.182 -999 3.870574 32.074591 0.740634
2009-05-18 15:52:24 51°16.344 2°54.168 -999 3.870263 32.072426 0.775459
2009-05-18 15:52:29 51°16.352 2°54.153 -999 3.870263 32.072426 0.775459
2009-05-18 15:52:34 51°16.36 2°54.138 -999 3.870159 32.070764 0.775459
2009-05-18 15:52:39 51°16.368 2°54.123 -999 3.869951 32.065325 0.810283
2009-05-18 15:52:44 51°16.377 2°54.107 -999 3.870055 32.065577 0.810283
2009-05-18 15:52:49 51°16.385 2°54.091 -999 3.870262 32.067491 0.845107
2009-05-18 15:52:54 51°16.393 2°54.075 -999 3.870366 32.069152 0.879931
2009-05-18 15:52:59 51°16.402 2°54.059 -999 3.870366 32.069152 0.879931
2009-05-18 15:53:04 51°16.411 2°54.042 -999 3.870159 32.067239 0.879931
2009-05-18 15:53:09 51°16.42 2°54.026 -999 3.870055 32.066282 0.914755
2009-05-18 15:53:14 51°16.43 2°54.008 -999 3.869848 32.064368 0.949579
2009-05-18 15:53:19 51°16.44 2°53.99 -999 3.869951 32.06462 0.914755
2009-05-18 15:53:24 51°16.45 2°53.972 -999 3.870055 32.066282 0.984403
2009-05-18 15:53:29 51°16.46 2°53.954 -999 3.870159 32.067944 0.984403
2009-05-18 15:53:34 51°16.47 2°53.935 -999 3.870159 32.067944 0.984403
2009-05-18 15:53:39 51°16.48 2°53.916 -999 3.87047 32.070814 1.019227
2009-05-18 15:53:44 51°16.49 2°53.897 -999 3.87047 32.070109 1.088875
2009-05-18 15:53:49 51°16.5 2°53.878 -999 3.870573 32.069656 1.123699
2009-05-18 15:53:55 51°16.512 2°53.855 -999 3.870885 32.072527 1.088875
2009-05-18 15:53:59 51°16.52 2°53.84 -999 3.870885 32.072527 1.088875
2009-05-18 15:54:04 51°16.531 2°53.821 -999 3.871092 32.07444 1.123699
2009-05-18 15:54:09 51°16.542 2°53.803 -999 3.871403 32.077311 1.123699
2009-05-18 15:54:15 51°16.555 2°53.781 -999 3.868915 32.055053 1.088875
2009-05-18 15:54:19 51°16.564 2°53.766 -999 3.872336 32.086628 1.088875
2009-05-18 15:54:24 51°16.575 2°53.748 -999 3.872855 32.091412 1.123699
2009-05-18 15:54:29 51°16.586 2°53.73 -999 3.872855 32.091412 1.123699
2009-05-18 15:54:34 51°16.598 2°53.712 -999 3.873269 32.094534 1.123699
2009-05-18 15:54:39 51°16.609 2°53.694 -999 3.872647 32.088793 1.123699
2009-05-18 15:54:44 51°16.621 2°53.676 -999 3.873788 32.10073 1.158523
2009-05-18 15:54:49 51°16.632 2°53.658 -999 3.873891 32.102393 1.158523
2009-05-18 15:54:54 51°16.644 2°53.64 -999 3.874721 32.110049 1.158523
2009-05-18 15:54:59 51°16.655 2°53.622 -999 3.874617 32.10768 1.193347
2009-05-18 15:55:04 51°16.666 2°53.605 -999 3.874617 32.10768 1.193347
2009-05-18 15:55:09 51°16.677 2°53.587 -999 3.875239 32.113422 1.158523
2009-05-18 15:55:14 51°16.689 2°53.569 -999 3.876069 32.121784 1.193347
2009-05-18 15:55:19 51°16.7 2°53.551 -999 3.876795 32.127071 1.158523
2009-05-18 15:55:24 51°16.711 2°53.534 -999 3.876898 32.127322 1.193347
2009-05-18 15:55:29 51°16.723 2°53.517 -999 3.876898 32.127322 1.193347
2009-05-18 15:55:34 51°16.734 2°53.5 -999 3.878246 32.139764 1.193347
2009-05-18 15:55:39 51°16.745 2°53.483 -999 3.878972 32.146464 1.193347
2009-05-18 15:55:44 51°16.757 2°53.466 -999 3.879387 32.149585 1.228171
2009-05-18 15:55:49 51°16.768 2°53.449 -999 3.881149 32.165857 1.228171
2009-05-18 15:55:55 51°16.782 2°53.428 -999 3.882705 32.178093 1.228171
2009-05-18 15:55:59 51°16.791 2°53.414 -999 3.882705 32.178093 1.228171
2009-05-18 15:56:04 51°16.803 2°53.398 -999 3.884778 32.197238 1.228171
2009-05-18 15:56:09 51°16.815 2°53.382 -999 3.886748 32.214719 1.228171
2009-05-18 15:56:15 51°16.829 2°53.363 -999 3.888822 32.233158 1.262995
2009-05-18 15:56:19 51°16.839 2°53.35 -999 3.890896 32.251598 1.262995
2009-05-18 15:56:24 51°16.851 2°53.334 -999 3.892347 32.263585 1.262995
2009-05-18 15:56:29 51°16.863 2°53.319 -999 3.892347 32.263585 1.262995
2009-05-18 15:56:35 51°16.878 2°53.301 -999 3.894732 32.284898 1.297819
2009-05-18 15:56:39 51°16.888 2°53.289 -999 3.89608 32.295928 1.297819
2009-05-18 15:56:44 51°16.9 2°53.275 -999 3.898983 32.322031 1.297819
2009-05-18 15:56:49 51°16.913 2°53.262 -999 3.899191 32.323236 1.332643
2009-05-18 15:56:54 51°16.926 2°53.248 -999 3.900643 32.336644 1.367467
2009-05-18 15:56:59 51°16.938 2°53.235 -999 3.90199 32.347673 1.367467
2009-05-18 15:57:04 51°16.951 2°53.221 -999 3.90199 32.347673 1.367467
2009-05-18 15:57:09 51°16.964 2°53.208 -999 3.90365 32.362286 1.402292
2009-05-18 15:57:14 51°16.977 2°53.195 -999 3.905205 32.376653 1.402292
2009-05-18 15:57:19 51°16.99 2°53.181 -999 3.90676 32.39031 1.367467
2009-05-18 15:57:24 51°17.002 2°53.167 -999 3.907797 32.399177 1.402292
2009-05-18 15:57:29 51°17.015 2°53.153 -999 3.907797 32.399177 1.402292
2009-05-18 15:57:34 51°17.028 2°53.139 -999 3.908108 32.40205 1.367467
2009-05-18 15:57:39 51°17.04 2°53.125 -999 3.909767 32.417378 1.367467
2009-05-18 15:57:44 51°17.053 2°53.111 -999 3.90956 32.416174 1.367467
2009-05-18 15:57:49 51°17.065 2°53.096 -999 3.910286 32.422168 1.402292
2009-05-18 15:57:54 51°17.078 2°53.082 -999 3.909456 32.412367 1.367467
2009-05-18 15:57:59 51°17.09 2°53.066 -999 3.909456 32.412367 1.367467
2009-05-18 15:58:04 51°17.103 2°53.052 -999 3.909352 32.410697 1.367467
2009-05-18 15:58:09 51°17.115 2°53.037 -999 3.909456 32.410943 1.367467
2009-05-18 15:58:15 51°17.13 2°53.019 -999 3.909664 32.412147 1.402292
2009-05-18 15:58:19 51°17.14 2°53.007 -999 3.909249 32.409027 1.367467
2009-05-18 15:58:24 51°17.152 2°52.992 -999 3.910078 32.415978 1.367467
2009-05-18 15:58:29 51°17.164 2°52.976 -999 3.910078 32.415978 1.367467
2009-05-18 15:58:35 51°17.179 2°52.958 -999 3.908938 32.404018 1.332643
2009-05-18 15:58:39 51°17.189 2°52.944 -999 3.908938 32.403306 1.332643
2009-05-18 15:58:44 51°17.2 2°52.928 -999 3.908004 32.393975 1.332643
2009-05-18 15:58:49 51°17.212 2°52.911 -999 3.908212 32.396602 1.332643
2009-05-18 15:58:54 51°17.223 2°52.894 -999 3.907071 32.385356 1.367467
2009-05-18 15:58:59 51°17.234 2°52.876 -999 3.907071 32.385356 1.367467
2009-05-18 15:59:04 51°17.245 2°52.859 -999 3.906242 32.376983 1.332643
2009-05-18 15:59:09 51°17.255 2°52.841 -999 3.906449 32.37961 1.332643
2009-05-18 15:59:14 51°17.266 2°52.823 -999 3.906138 32.377448 1.332643
2009-05-18 15:59:19 51°17.277 2°52.806 -999 3.905412 32.371456 1.367467
2009-05-18 15:59:24 51°17.288 2°52.788 -999 3.904894 32.367379 1.332643
2009-05-18 15:59:29 51°17.298 2°52.77 -999 3.904894 32.367379 1.332643
2009-05-18 15:59:34 51°17.309 2°52.751 -999 3.903546 32.35564 1.332643
2009-05-18 15:59:39 51°17.319 2°52.733 -999 3.903442 32.353972 1.367467
2009-05-18 15:59:44 51°17.33 2°52.715 -999 3.903027 32.352274 1.332643
2009-05-18 15:59:49 51°17.341 2°52.697 -999 3.901472 32.340042 1.332643
2009-05-18 15:59:54 51°17.352 2°52.679 -999 3.901368 32.341216 1.367467
2009-05-18 15:59:59 51°17.363 2°52.661 -999 3.901368 32.341216 1.367467
2009-05-18 16:00:04 51°17.374 2°52.643 -999 3.900954 32.338096 1.332643
2009-05-18 16:00:09 51°17.385 2°52.625 -999 3.899295 32.323483 1.367467
2009-05-18 16:00:14 51°17.396 2°52.608 -999 3.89888 32.321784 1.332643
2009-05-18 16:00:19 51°17.407 2°52.59 -999 3.898465 32.319373 1.367467
2009-05-18 16:00:24 51°17.419 2°52.572 -999 3.897117 32.308344 1.367467
2009-05-18 16:00:29 51°17.43 2°52.555 -999 3.896599 32.305685 1.402292
2009-05-18 16:00:35 51°17.443 2°52.534 -999 3.896599 32.305685 1.402292
2009-05-18 16:00:39 51°17.452 2°52.52 -999 3.895043 32.292739 1.367467
2009-05-18 16:00:44 51°17.464 2°52.503 -999 3.894318 32.287454 1.332643
2009-05-18 16:00:49 51°17.475 2°52.486 -999 3.89494 32.293911 1.367467
2009-05-18 16:00:55 51°17.488 2°52.464 -999 3.894629 32.291747 1.332643
2009-05-18 16:00:59 51°17.498 2°52.45 -999 3.894629 32.291747 1.332643
2009-05-18 16:01:04 51°17.509 2°52.433 -999 3.893073 32.2788 1.367467
2009-05-18 16:01:09 51°17.52 2°52.415 -999 3.893177 32.280467 1.332643
2009-05-18 16:01:14 51°17.532 2°52.397 -999 3.891829 32.268016 1.332643
2009-05-18 16:01:19 51°17.543 2°52.38 -999 3.892244 32.271847 1.367467
2009-05-18 16:01:24 51°17.554 2°52.362 -999 3.890377 32.2539 1.297819
2009-05-18 16:01:29 51°17.565 2°52.344 -999 3.890377 32.2539 1.297819
2009-05-18 16:01:34 51°17.577 2°52.327 -999 3.890896 32.258688 1.367467
2009-05-18 16:01:39 51°17.588 2°52.309 -999 3.890274 32.252942 1.297819
2009-05-18 16:01:44 51°17.599 2°52.291 -999 3.89017 32.251275 1.332643
2009-05-18 16:01:49 51°17.61 2°52.274 -999 3.889237 32.241239 1.297819
2009-05-18 16:01:54 51°17.622 2°52.257 -999 3.889444 32.241737 1.297819
2009-05-18 16:01:59 51°17.633 2°52.239 -999 3.889444 32.241737 1.297819
2009-05-18 16:02:04 51°17.645 2°52.222 -999 3.889237 32.239113 1.262995
2009-05-18 16:02:09 51°17.656 2°52.205 -999 3.8882 32.228122 1.262995
2009-05-18 16:02:14 51°17.667 2°52.187 -999 3.888511 32.228869 1.228171
2009-05-18 16:02:19 51°17.679 2°52.17 -999 3.887578 32.219545 1.193347
2009-05-18 16:02:24 51°17.69 2°52.153 -999 3.889237 32.233446 1.228171
2009-05-18 16:02:29 51°17.701 2°52.136 -999 3.888822 32.226784 1.158523
2009-05-18 16:02:35 51°17.715 2°52.114 -999 3.888822 32.226784 1.158523
2009-05-18 16:02:39 51°17.724 2°52.101 -999 3.888718 32.222994 1.228171
2009-05-18 16:02:44 51°17.736 2°52.084 -999 3.887889 32.213922 1.228171
2009-05-18 16:02:49 51°17.747 2°52.066 -999 3.888407 32.216584 1.193347
2009-05-18 16:02:55 51°17.76 2°52.046 -999 3.888511 32.216125 1.158523
2009-05-18 16:02:59 51°17.769 2°52.032 -999 3.888511 32.216125 1.158523
2009-05-18 16:03:04 51°17.78 2°52.015 -999 3.88737 32.204184 1.158523
2009-05-18 16:03:09 51°17.791 2°51.998 -999 3.888614 32.214959 1.088875
2009-05-18 16:03:15 51°17.805 2°51.977 -999 3.887474 32.203019 1.123699
2009-05-18 16:03:19 51°17.813 2°51.963 -999 3.888614 32.211422 1.123699
2009-05-18 16:03:24 51°17.825 2°51.946 -999 3.8882 32.206887 1.158523
2009-05-18 16:03:29 51°17.836 2°51.929 -999 3.8882 32.206887 1.158523
2009-05-18 16:03:34 51°17.847 2°51.912 -999 3.886852 32.195157 1.193347
2009-05-18 16:03:39 51°17.859 2°51.895 -999 3.87358 32.072733 1.193347
2009-05-18 16:03:44 51°17.87 2°51.878 -999 3.886437 32.189209 1.228171
2009-05-18 16:03:49 51°17.882 2°51.861 -999 3.886333 32.186839 1.262995
2009-05-18 16:03:54 51°17.893 2°51.844 -999 3.884363 32.165133 1.228171
2009-05-18 16:03:59 51°17.905 2°51.827 -999 3.884363 32.165133 1.228171
2009-05-18 16:04:04 51°17.916 2°51.809 -999 3.883637 32.152085 1.262995
2009-05-18 16:04:09 51°17.927 2°51.792 -999 3.883119 32.14166 1.262995
2009-05-18 16:04:14 51°17.938 2°51.775 -999 3.883948 32.142959 1.228171
2009-05-18 16:04:19 51°17.949 2°51.757 -999 3.88343 32.13536 1.228171
2009-05-18 16:04:24 51°17.96 2°51.74 -999 3.883533 32.134201 1.262995
2009-05-18 16:04:29 51°17.971 2°51.722 -999 3.883533 32.134201 1.262995
2009-05-18 16:04:34 51°17.982 2°51.704 -999 3.883637 32.138682 1.297819
2009-05-18 16:04:39 51°17.994 2°51.687 -999 3.883741 32.143164 1.332643
2009-05-18 16:04:44 51°18.005 2°51.668 -999 3.884156 32.148398 1.262995
2009-05-18 16:04:49 51°18.016 2°51.651 -999 3.883844 32.146236 1.262995
2009-05-18 16:04:55 51°18.03 2°51.63 -999 3.883533 32.145484 1.262995
2009-05-18 16:04:59 51°18.039 2°51.616 -999 3.883533 32.145484 1.262995
2009-05-18 16:05:04 51°18.05 2°51.598 -999 3.884674 32.156 1.228171
2009-05-18 16:05:09 51°18.061 2°51.581 -999 3.884881 32.158618 1.158523
2009-05-18 16:05:15 51°18.075 2°51.56 -999 3.884363 32.151721 1.158523
2009-05-18 16:05:19 51°18.084 2°51.546 -999 3.884363 32.149604 1.193347
2009-05-18 16:05:24 51°18.095 2°51.528 -999 3.884052 32.146031 1.158523
2009-05-18 16:05:29 51°18.107 2°51.511 -999 3.884052 32.146031 1.158523
2009-05-18 16:05:35 51°18.121 2°51.49 -999 3.883326 32.140045 1.193347
2009-05-18 16:05:39 51°18.13 2°51.476 -999 3.883533 32.141957 1.158523
2009-05-18 16:05:44 51°18.141 2°51.458 -999 3.884881 32.154384 1.088875
2009-05-18 16:05:49 51°18.153 2°51.441 -999 3.884363 32.148899 1.123699
2009-05-18 16:05:54 51°18.164 2°51.423 -999 3.883015 32.135062 1.123699
2009-05-18 16:05:59 51°18.176 2°51.405 -999 3.883948 32.14437 1.088875
2009-05-18 16:06:04 51°18.187 2°51.387 -999 3.883948 32.14437 1.088875
2009-05-18 16:06:09 51°18.198 2°51.369 -999 3.8854 32.15493 1.054051
2009-05-18 16:06:14 51°18.21 2°51.352 -999 3.885089 32.147831 1.054051
2009-05-18 16:06:19 51°18.222 2°51.335 -999 3.884881 32.138869 1.054051
2009-05-18 16:06:24 51°18.233 2°51.318 -999 3.884985 32.135596 1.054051
2009-05-18 16:06:29 51°18.245 2°51.3 -999 3.884985 32.135596 1.054051
2009-05-18 16:06:35 51°18.259 2°51.279 -999 3.885192 32.134688 1.019227
2009-05-18 16:06:39 51°18.268 2°51.265 -999 3.885296 32.132121 0.984403
2009-05-18 16:06:44 51°18.28 2°51.248 -999 3.885814 32.138306 0.984403
2009-05-18 16:06:49 51°18.291 2°51.23 -999 3.885814 32.137601 0.984403
2009-05-18 16:06:55 51°18.305 2°51.209 -999 3.886022 32.140921 0.984403
2009-05-18 16:06:59 51°18.314 2°51.195 -999 3.886022 32.140921 0.984403
2009-05-18 16:07:04 51°18.326 2°51.177 -999 3.886229 32.143537 0.984403
2009-05-18 16:07:09 51°18.337 2°51.159 -999 3.885918 32.139261 0.984403
2009-05-18 16:07:15 51°18.351 2°51.14 -999 3.886021 32.138103 0.949579
2009-05-18 16:07:19 51°18.359 2°51.127 -999 3.886229 32.139309 0.984403
2009-05-18 16:07:24 51°18.369 2°51.112 -999 3.886229 32.1379 0.949579
2009-05-18 16:07:29 51°18.379 2°51.099 -999 3.886229 32.138604 0.984403
2009-05-18 16:07:35 51°18.39 2°51.086 -999 3.886229 32.138604 0.984403
2009-05-18 16:07:39 51°18.396 2°51.076 -999 3.886644 32.14172 0.984403
2009-05-18 16:07:44 51°18.403 2°51.066 -999 3.887058 32.146245 0.949579
2009-05-18 16:07:49 51°18.41 2°51.056 -999 3.887266 32.147451 0.949579
2009-05-18 16:07:55 51°18.417 2°51.045 -999 3.887577 32.148202 0.949579
2009-05-18 16:07:59 51°18.422 2°51.038 -999 3.887577 32.148202 0.949579
2009-05-18 16:08:04 51°18.427 2°51.03 -999 3.887888 32.150363 0.949579
2009-05-18 16:08:09 51°18.432 2°51.022 -999 3.888199 32.155343 0.914755
2009-05-18 16:08:14 51°18.437 2°51.015 -999 3.888406 32.155844 0.949579
2009-05-18 16:08:19 51°18.441 2°51.01 -999 3.888925 32.158505 0.914755
2009-05-18 16:08:24 51°18.446 2°51.004 -999 3.889443 32.16328 0.949579
2009-05-18 16:08:29 51°18.45 2°50.999 -999 3.889443 32.16328 0.949579
2009-05-18 16:08:34 51°18.454 2°50.995 -999 3.889754 32.166851 0.914755
2009-05-18 16:08:39 51°18.458 2°50.991 -999 3.889962 32.170877 0.914755
2009-05-18 16:08:44 51°18.461 2°50.988 -999 3.889858 32.169216 0.914755
2009-05-18 16:08:49 51°18.464 2°50.985 -999 3.890169 32.174198 0.914755
2009-05-18 16:08:54 51°18.466 2°50.983 -999 3.89048 32.179885 0.879931
2009-05-18 16:08:59 51°18.468 2°50.981 -999 3.89048 32.179885 0.879931
2009-05-18 16:09:04 51°18.47 2°50.979 -999 3.890687 32.184619 0.879931
2009-05-18 16:09:09 51°18.471 2°50.977 -999 3.888717 32.169286 0.845107
2009-05-18 16:09:15 51°18.473 2°50.975 -999 3.888821 32.173064 0.845107
2009-05-18 16:09:19 51°18.474 2°50.973 -999 3.890999 32.194544 0.879931
2009-05-18 16:09:24 51°18.475 2°50.971 -999 3.890999 32.195956 0.845107
2009-05-18 16:09:29 51°18.477 2°50.97 -999 3.891206 32.199987 0.845107
2009-05-18 16:09:35 51°18.478 2°50.968 -999 3.891206 32.199987 0.845107
2009-05-18 16:09:39 51°18.478 2°50.967 -999 3.89131 32.203062 0.845107
2009-05-18 16:09:44 51°18.479 2°50.966 -999 3.891206 32.203518 0.810283
2009-05-18 16:09:49 51°18.48 2°50.966 -999 3.891414 32.206843 0.810283
2009-05-18 16:09:55 51°18.48 2°50.965 -999 3.891414 32.208257 0.845107
2009-05-18 16:09:59 51°18.481 2°50.964 -999 3.891414 32.208257 0.845107
2009-05-18 16:10:04 51°18.481 2°50.964 -999 3.891517 32.210626 0.810283
2009-05-18 16:10:09 51°18.482 2°50.963 -999 3.891621 32.212996 0.810283
2009-05-18 16:10:15 51°18.482 2°50.963 -999 3.891621 32.213702 0.810283
2009-05-18 16:10:19 51°18.483 2°50.963 -999 3.891621 32.214409 0.810283
2009-05-18 16:10:24 51°18.483 2°50.962 -999 3.891517 32.213453 0.810283
2009-05-18 16:10:29 51°18.484 2°50.962 -999 3.891517 32.213453 0.810283
2009-05-18 16:10:34 51°18.484 2°50.962 -999 3.891621 32.215116 0.810283
2009-05-18 16:10:39 51°18.484 2°50.962 -999 3.891621 32.215116 0.810283
2009-05-18 16:10:44 51°18.485 2°50.963 -999 3.891725 32.215365 0.810283
2009-05-18 16:10:49 51°18.485 2°50.963 -999 3.891828 32.215615 0.810283
2009-05-18 16:10:55 51°18.486 2°50.963 -999 3.891828 32.215615 0.810283
2009-05-18 16:10:59 51°18.486 2°50.964 -999 3.891828 32.215615 0.810283
2009-05-18 16:11:04 51°18.486 2°50.964 -999 3.891828 32.214908 0.810283
2009-05-18 16:11:09 51°18.487 2°50.965 -999 3.891932 32.217278 0.810283
2009-05-18 16:11:15 51°18.487 2°50.965 -999 3.892036 32.218941 0.810283
2009-05-18 16:11:19 51°18.487 2°50.966 -999 3.892139 32.220604 0.845107
2009-05-18 16:11:24 51°18.487 2°50.966 -999 3.892139 32.222018 0.810283
2009-05-18 16:11:29 51°18.488 2°50.967 -999 3.892243 32.223682 0.810283
2009-05-18 16:11:35 51°18.488 2°50.968 -999 3.892243 32.223682 0.810283
2009-05-18 16:11:39 51°18.488 2°50.969 -999 3.892243 32.225804 0.810283
2009-05-18 16:11:44 51°18.489 2°50.97 -999 3.89214 32.226262 0.810283
2009-05-18 16:11:49 51°18.489 2°50.971 -999 3.89214 32.226262 0.810283
2009-05-18 16:11:55 51°18.489 2°50.972 -999 3.89214 32.225554 0.775459
2009-05-18 16:11:59 51°18.489 2°50.973 -999 3.89214 32.225554 0.775459
2009-05-18 16:12:04 51°18.489 2°50.974 -999 3.892243 32.224389 0.810283
2009-05-18 16:12:09 51°18.489 2°50.975 -999 3.892347 32.225345 0.810283
2009-05-18 16:12:15 51°18.489 2°50.976 -999 3.892451 32.226302 0.775459
2009-05-18 16:12:19 51°18.489 2°50.977 -999 3.892658 32.228922 0.775459
2009-05-18 16:12:24 51°18.489 2°50.978 -999 3.892865 32.230127 0.740634
2009-05-18 16:12:29 51°18.489 2°50.979 -999 3.892865 32.230127 0.740634
2009-05-18 16:12:34 51°18.489 2°50.98 -999 3.893073 32.23204 0.740634
2009-05-18 16:12:39 51°18.489 2°50.981 -999 3.89328 32.235367 0.70581
2009-05-18 16:12:44 51°18.489 2°50.982 -999 3.893384 32.237031 0.70581
2009-05-18 16:12:49 51°18.489 2°50.983 -999 3.893384 32.236324 0.740634
2009-05-18 16:12:54 51°18.489 2°50.984 -999 3.893487 32.236573 0.740634
2009-05-18 16:12:59 51°18.489 2°50.985 -999 3.893799 32.240149 0.70581
2009-05-18 16:13:04 51°18.488 2°50.986 -999 3.893799 32.240149 0.70581
2009-05-18 16:13:09 51°18.488 2°50.987 -999 3.893902 32.243937 0.670986
2009-05-18 16:13:15 51°18.488 2°50.988 -999 3.894006 32.246309 0.70581
2009-05-18 16:13:19 51°18.488 2°50.989 -999 3.89411 32.247265 0.670986
2009-05-18 16:13:24 51°18.488 2°50.99 -999 3.894213 32.248222 0.670986
2009-05-18 16:13:29 51°18.487 2°50.991 -999 3.894213 32.248222 0.670986
2009-05-18 16:13:35 51°18.487 2°50.993 -999 3.894317 32.249886 0.670986
2009-05-18 16:13:39 51°18.487 2°50.994 -999 3.894213 32.249638 0.636162
2009-05-18 16:13:44 51°18.487 2°50.995 -999 3.894421 32.251551 0.670986
2009-05-18 16:13:49 51°18.487 2°50.996 -999 3.894421 32.250843 0.670986
2009-05-18 16:13:55 51°18.486 2°50.997 -999 3.894628 32.25134 0.670986
2009-05-18 16:13:59 51°18.486 2°50.998 -999 3.894628 32.25134 0.670986
2009-05-18 16:14:04 51°18.486 2°51 -999 3.894628 32.25134 0.670986
2009-05-18 16:14:09 51°18.486 2°51.001 -999 3.894732 32.252297 0.670986
2009-05-18 16:14:15 51°18.485 2°51.002 -999 3.894835 32.254669 0.636162
2009-05-18 16:14:19 51°18.485 2°51.003 -999 3.894835 32.256086 0.636162
2009-05-18 16:14:24 51°18.485 2°51.004 -999 3.894836 32.257502 0.670986
2009-05-18 16:14:29 51°18.484 2°51.005 -999 3.894836 32.257502 0.670986
2009-05-18 16:14:35 51°18.484 2°51.006 -999 3.894939 32.25775 0.636162
2009-05-18 16:14:39 51°18.484 2°51.007 -999 3.894835 32.255378 0.636162
2009-05-18 16:14:44 51°18.483 2°51.008 -999 3.895147 32.256831 0.636162
2009-05-18 16:14:49 51°18.483 2°51.009 -999 3.89525 32.259204 0.566514
2009-05-18 16:14:55 51°18.483 2°51.01 -999 3.895458 32.262534 0.601338
2009-05-18 16:14:59 51°18.482 2°51.012 -999 3.895561 32.267033 0.566514
2009-05-18 16:15:04 51°18.482 2°51.013 -999 3.895561 32.267033 0.566514
2009-05-18 16:15:09 51°18.482 2°51.014 -999 3.895665 32.270824 0.566514
2009-05-18 16:15:14 51°18.482 2°51.015 -999 3.895665 32.27295 0.566514
2009-05-18 16:15:19 51°18.482 2°51.016 -999 3.895665 32.274367 0.566514
2009-05-18 16:15:24 51°18.483 2°51.017 -999 3.895561 32.274119 0.566514
2009-05-18 16:15:29 51°18.484 2°51.019 -999 3.895561 32.274119 0.566514
2009-05-18 16:15:35 51°18.485 2°51.02 -999 3.895561 32.274828 0.601338
2009-05-18 16:15:39 51°18.486 2°51.021 -999 3.895562 32.275537 0.566514
2009-05-18 16:15:44 51°18.487 2°51.023 -999 3.895562 32.275537 0.53169
2009-05-18 16:15:49 51°18.489 2°51.024 -999 3.895562 32.275537 0.53169
2009-05-18 16:15:55 51°18.49 2°51.026 -999 3.895562 32.276954 0.53169
2009-05-18 16:15:59 51°18.492 2°51.028 -999 3.895562 32.276954 0.53169
2009-05-18 16:16:04 51°18.494 2°51.03 -999 3.895665 32.277911 0.53169
2009-05-18 16:16:09 51°18.496 2°51.033 -999 3.895665 32.277911 0.53169
2009-05-18 16:16:15 51°18.499 2°51.037 -999 3.895873 32.279826 0.496866
2009-05-18 16:16:19 51°18.502 2°51.04 -999 3.895976 32.281492 0.53169
2009-05-18 16:16:24 51°18.505 2°51.045 -999 3.89608 32.283867 0.496866
2009-05-18 16:16:29 51°18.508 2°51.05 -999 3.896184 32.286243 0.462042
2009-05-18 16:16:35 51°18.512 2°51.058 -999 3.896184 32.286243 0.462042
2009-05-18 16:16:39 51°18.514 2°51.063 -999 3.896184 32.286243 0.462042
2009-05-18 16:16:44 51°18.517 2°51.07 -999 3.896184 32.285534 0.496866
2009-05-18 16:16:49 51°18.52 2°51.078 -999 3.896287 32.286491 0.462042
2009-05-18 16:16:55 51°18.523 2°51.089 -999 3.896391 32.288157 0.462042
2009-05-18 16:16:59 51°18.526 2°51.097 -999 3.896391 32.288157 0.462042
2009-05-18 16:17:04 51°18.528 2°51.108 -999 3.895873 32.283371 0.427218
2009-05-18 16:17:09 51°18.53 2°51.12 -999 3.895665 32.282166 0.427218
2009-05-18 16:17:15 51°18.533 2°51.134 -999 3.895976 32.285747 0.462042
2009-05-18 16:17:19 51°18.535 2°51.145 -999 3.895976 32.286456 0.427218
2009-05-18 16:17:24 51°18.538 2°51.158 -999 3.895769 32.285251 0.427218
2009-05-18 16:17:29 51°18.54 2°51.172 -999 3.895769 32.285251 0.427218
2009-05-18 16:17:35 51°18.544 2°51.189 -999 3.896287 32.292166 0.427218
2009-05-18 16:17:39 51°18.546 2°51.2 -999 3.895976 32.292131 0.462042
2009-05-18 16:17:44 51°18.549 2°51.215 -999 3.895665 32.292807 0.496866
2009-05-18 16:17:49 51°18.552 2°51.229 -999 3.895562 32.294688 0.462042
2009-05-18 16:17:55 51°18.556 2°51.247 -999 3.895251 32.293945 0.496866
2009-05-18 16:17:59 51°18.559 2°51.26 -999 3.895251 32.293945 0.496866
2009-05-18 16:18:04 51°18.562 2°51.276 -999 3.894732 32.289156 0.496866
2009-05-18 16:18:09 51°18.566 2°51.293 -999 3.895251 32.293945 0.53169
2009-05-18 16:18:15 51°18.57 2°51.315 -999 3.89494 32.291071 0.53169
2009-05-18 16:18:19 51°18.573 2°51.33 -999 3.89494 32.291781 0.53169
2009-05-18 16:18:24 51°18.577 2°51.349 -999 3.894629 32.289618 0.53169
2009-05-18 16:18:29 51°18.582 2°51.368 -999 3.894525 32.29008 0.53169
2009-05-18 16:18:35 51°18.585 2°51.393 -999 3.894525 32.29008 0.53169
2009-05-18 16:18:39 51°18.591 2°51.409 -999 3.894525 32.29008 0.566514
2009-05-18 16:18:44 51°18.593 2°51.431 -999 3.894214 32.287916 0.566514
2009-05-18 16:18:49 51°18.6 2°51.451 -999 3.894421 32.289832 0.566514
2009-05-18 16:18:55 51°18.604 2°51.479 -999 3.89411 32.286958 0.601338
2009-05-18 16:18:59 51°18.609 2°51.495 -999 3.89411 32.286958 0.601338
2009-05-18 16:19:04 51°18.614 2°51.518 -999 3.893903 32.285753 0.601338
2009-05-18 16:19:09 51°18.618 2°51.542 -999 3.893695 32.283837 0.636162
2009-05-18 16:19:15 51°18.625 2°51.569 -999 3.894214 32.287206 0.636162
2009-05-18 16:19:19 51°18.629 2°51.589 -999 3.89411 32.28341 0.636162
2009-05-18 16:19:24 51°18.634 2°51.613 -999 3.894525 32.28795 0.636162
2009-05-18 16:19:29 51°18.64 2°51.637 -999 3.894525 32.28795 0.636162
2009-05-18 16:19:34 51°18.644 2°51.661 -999 3.894214 32.285787 0.740634
2009-05-18 16:19:39 51°18.651 2°51.685 -999 3.894214 32.286497 0.740634
2009-05-18 16:19:44 51°18.656 2°51.71 -999 3.893799 32.284085 0.70581
2009-05-18 16:19:49 51°18.661 2°51.734 -999 3.89411 32.287668 0.70581
2009-05-18 16:19:55 51°18.667 2°51.763 -999 3.893281 32.280006 0.740634
2009-05-18 16:19:59 51°18.672 2°51.783 -999 3.893903 32.285753 0.740634
2009-05-18 16:20:04 51°18.677 2°51.807 -999 3.893903 32.285753 0.740634
2009-05-18 16:20:09 51°18.682 2°51.831 -999 3.893488 32.281212 0.740634
2009-05-18 16:20:15 51°18.689 2°51.861 -999 3.89297 32.275714 0.740634
2009-05-18 16:20:19 51°18.693 2°51.881 -999 3.893592 32.28146 0.775459
2009-05-18 16:20:24 51°18.7 2°51.905 -999 3.893384 32.279545 0.775459
2009-05-18 16:20:29 51°18.704 2°51.93 -999 3.893384 32.279545 0.775459
2009-05-18 16:20:35 51°18.712 2°51.959 -999 3.892866 32.274047 0.810283
2009-05-18 16:20:39 51°18.715 2°51.979 -999 3.892659 32.272131 0.740634
2009-05-18 16:20:44 51°18.722 2°52.003 -999 3.892762 32.273089 0.775459
2009-05-18 16:20:49 51°18.726 2°52.028 -999 3.892762 32.270961 0.810283
2009-05-18 16:20:55 51°18.733 2°52.058 -999 3.892866 32.271918 0.775459
2009-05-18 16:20:59 51°18.737 2°52.078 -999 3.892866 32.271918 0.775459
2009-05-18 16:21:04 51°18.744 2°52.102 -999 3.893281 32.275039 0.810283
2009-05-18 16:21:09 51°18.748 2°52.128 -999 3.892866 32.269791 0.810283
2009-05-18 16:21:15 51°18.756 2°52.158 -999 3.893177 32.271245 0.845107
2009-05-18 16:21:19 51°18.759 2°52.177 -999 3.893384 32.272451 0.845107
2009-05-18 16:21:24 51°18.764 2°52.202 -999 3.892451 32.263124 0.845107
2009-05-18 16:21:29 51°18.77 2°52.227 -999 3.892451 32.263124 0.845107
2009-05-18 16:21:35 51°18.775 2°52.256 -999 3.892451 32.260288 0.845107
2009-05-18 16:21:39 51°18.778 2°52.276 -999 3.892244 32.255539 0.845107
2009-05-18 16:21:44 51°18.785 2°52.3 -999 3.893384 32.263233 0.845107
2009-05-18 16:21:49 51°18.789 2°52.325 -999 3.892866 32.257739 0.879931
2009-05-18 16:21:54 51°18.795 2°52.349 -999 3.892555 32.25345 0.879931
2009-05-18 16:21:59 51°18.8 2°52.374 -999 3.892866 32.252779 0.914755
2009-05-18 16:22:04 51°18.806 2°52.398 -999 3.892866 32.252779 0.914755
2009-05-18 16:22:09 51°18.811 2°52.423 -999 3.892347 32.245869 0.914755
2009-05-18 16:22:15 51°18.818 2°52.452 -999 3.892658 32.246615 0.914755
2009-05-18 16:22:19 51°18.822 2°52.473 -999 3.891103 32.230847 0.949579
2009-05-18 16:22:24 51°18.829 2°52.498 -999 3.891725 32.234464 0.949579
2009-05-18 16:22:29 51°18.834 2°52.523 -999 3.891725 32.234464 0.949579
2009-05-18 16:22:35 51°18.841 2°52.553 -999 3.891103 32.227308 0.949579
2009-05-18 16:22:39 51°18.846 2°52.572 -999 3.891621 32.231384 0.949579
2009-05-18 16:22:44 51°18.851 2°52.598 -999 3.89017 32.217284 0.984403
2009-05-18 16:22:49 51°18.858 2°52.622 -999 3.890688 32.222774 0.949579
2009-05-18 16:22:55 51°18.864 2°52.652 -999 3.889547 32.211544 0.984403
2009-05-18 16:22:59 51°18.869 2°52.671 -999 3.889547 32.211544 0.984403
2009-05-18 16:23:04 51°18.875 2°52.695 -999 3.889444 32.20988 0.984403
2009-05-18 16:23:09 51°18.88 2°52.719 -999 3.889029 32.205347 0.984403
2009-05-18 16:23:15 51°18.887 2°52.748 -999 3.889547 32.209423 0.984403
2009-05-18 16:23:19 51°18.891 2°52.768 -999 3.888199 32.195575 1.019227
2009-05-18 16:23:24 51°18.896 2°52.792 -999 3.888718 32.19965 0.984403
2009-05-18 16:23:29 51°18.902 2°52.817 -999 3.887577 32.188423 0.984403
2009-05-18 16:23:35 51°18.909 2°52.847 -999 3.887577 32.188423 0.984403
2009-05-18 16:23:39 51°18.913 2°52.866 -999 3.887577 32.187716 1.054051
2009-05-18 16:23:44 51°18.918 2°52.89 -999 3.886437 32.177197 1.019227
2009-05-18 16:23:49 51°18.924 2°52.915 -999 3.885815 32.17146 1.054051
2009-05-18 16:23:54 51°18.929 2°52.939 -999 3.884881 32.16356 1.088875
2009-05-18 16:23:59 51°18.933 2°52.964 -999 3.8854 32.167635 1.123699
2009-05-18 16:24:04 51°18.94 2°52.988 -999 3.8854 32.167635 1.123699
2009-05-18 16:24:09 51°18.945 2°53.012 -999 3.885089 32.162648 1.088875
2009-05-18 16:24:15 51°18.952 2°53.042 -999 3.884778 32.159074 1.088875
2009-05-18 16:24:19 51°18.955 2°53.062 -999 3.883637 32.147146 1.123699
2009-05-18 16:24:24 51°18.962 2°53.086 -999 3.882497 32.137335 1.123699
2009-05-18 16:24:29 51°18.966 2°53.112 -999 3.882497 32.137335 1.123699
2009-05-18 16:24:35 51°18.974 2°53.141 -999 3.882186 32.134467 1.123699
2009-05-18 16:24:39 51°18.977 2°53.162 -999 3.881563 32.128026 1.158523
2009-05-18 16:24:44 51°18.984 2°53.186 -999 3.882808 32.138087 1.158523
2009-05-18 16:24:49 51°18.988 2°53.211 -999 3.882497 32.134514 1.123699
2009-05-18 16:24:55 51°18.994 2°53.241 -999 3.882082 32.129985 1.158523
2009-05-18 16:24:59 51°18.998 2°53.261 -999 3.882082 32.129985 1.158523
2009-05-18 16:25:04 51°19.004 2°53.286 -999 3.88146 32.124955 1.158523
2009-05-18 16:25:09 51°19.009 2°53.311 -999 3.881563 32.126616 1.158523
2009-05-18 16:25:15 51°19.015 2°53.341 -999 3.880734 32.119674 1.123699
2009-05-18 16:25:19 51°19.019 2°53.361 -999 3.880527 32.118467 1.158523
2009-05-18 16:25:24 51°19.024 2°53.386 -999 3.880216 32.117009 1.158523
2009-05-18 16:25:29 51°19.029 2°53.41 -999 3.878246 32.100256 1.158523
2009-05-18 16:25:35 51°19.034 2°53.441 -999 3.878246 32.100256 1.158523
2009-05-18 16:25:39 51°19.039 2°53.461 -999 3.878764 32.105035 1.158523
2009-05-18 16:25:44 51°19.043 2°53.487 -999 3.878764 32.10574 1.158523
2009-05-18 16:25:49 51°19.048 2°53.511 -999 3.877105 32.090446 1.158523
2009-05-18 16:25:55 51°19.054 2°53.542 -999 3.878246 32.10096 1.158523
2009-05-18 16:25:59 51°19.058 2°53.562 -999 3.878246 32.10096 1.158523
2009-05-18 16:26:04 51°19.061 2°53.587 -999 3.876794 32.087578 1.158523
2009-05-18 16:26:09 51°19.067 2°53.61 -999 3.877934 32.097388 1.158523
2009-05-18 16:26:14 51°19.07 2°53.637 -999 3.876898 32.086421 1.123699
2009-05-18 16:26:19 51°19.077 2°53.661 -999 3.876794 32.08617 1.193347
2009-05-18 16:26:24 51°19.079 2°53.687 -999 3.876379 32.080234 1.193347
2009-05-18 16:26:29 51°19.086 2°53.711 -999 3.876379 32.080234 1.193347
2009-05-18 16:26:35 51°19.09 2°53.742 -999 3.878038 32.096935 1.193347
2009-05-18 16:26:39 51°19.094 2°53.762 -999 3.877623 32.094521 1.158523
2009-05-18 16:26:44 51°19.098 2°53.787 -999 3.877623 32.095225 1.158523
2009-05-18 16:26:49 51°19.103 2°53.813 -999 3.877416 32.094018 1.158523
2009-05-18 16:26:55 51°19.109 2°53.844 -999 3.877209 32.09281 1.158523
2009-05-18 16:26:59 51°19.112 2°53.865 -999 3.877209 32.09281 1.158523
2009-05-18 16:27:04 51°19.117 2°53.89 -999 3.876068 32.083 1.193347
2009-05-18 16:27:09 51°19.122 2°53.916 -999 3.874824 32.072938 1.158523
2009-05-18 16:27:15 51°19.127 2°53.947 -999 3.875446 32.078673 1.123699
2009-05-18 16:27:19 51°19.131 2°53.967 -999 3.875342 32.078421 1.158523
2009-05-18 16:27:24 51°19.136 2°53.993 -999 3.876379 32.088685 1.123699
2009-05-18 16:27:29 51°19.14 2°54.018 -999 3.875653 32.081993 1.123699
2009-05-18 16:27:35 51°19.146 2°54.048 -999 3.875653 32.081993 1.123699
2009-05-18 16:27:39 51°19.15 2°54.069 -999 3.876172 32.086069 1.088875
2009-05-18 16:27:44 51°19.154 2°54.095 -999 3.876068 32.085113 1.158523
2009-05-18 16:27:49 51°19.158 2°54.12 -999 3.875861 32.083201 1.123699
2009-05-18 16:27:55 51°19.163 2°54.151 -999 3.873995 32.066699 1.123699
2009-05-18 16:27:59 51°19.167 2°54.172 -999 3.873995 32.066699 1.123699
2009-05-18 16:28:04 51°19.172 2°54.196 -999 3.874409 32.071226 1.088875
2009-05-18 16:28:09 51°19.175 2°54.222 -999 3.87358 32.063579 1.088875
2009-05-18 16:28:15 51°19.182 2°54.251 -999 3.874824 32.07505 1.088875
2009-05-18 16:28:19 51°19.185 2°54.271 -999 3.873995 32.067403 1.088875
2009-05-18 16:28:24 51°19.19 2°54.296 -999 3.874513 32.072886 1.123699
2009-05-18 16:28:29 51°19.194 2°54.321 -999 3.874513 32.072886 1.123699
2009-05-18 16:28:34 51°19.199 2°54.347 -999 3.872128 32.050901 1.054051
2009-05-18 16:28:39 51°19.205 2°54.371 -999 3.873995 32.068107 1.088875
2009-05-18 16:28:44 51°19.209 2°54.396 -999 3.873787 32.067603 1.123699
2009-05-18 16:28:49 51°19.214 2°54.422 -999 3.873787 32.069011 1.088875
2009-05-18 16:28:55 51°19.22 2°54.452 -999 3.873891 32.070671 1.088875
2009-05-18 16:28:59 51°19.225 2°54.471 -999 3.872439 32.058695 1.123699
2009-05-18 16:29:04 51°19.228 2°54.497 -999 3.872439 32.058695 1.123699
2009-05-18 16:29:09 51°19.235 2°54.522 -999 3.87275 32.062971 1.123699
2009-05-18 16:29:15 51°19.24 2°54.552 -999 3.872647 32.062719 1.123699
2009-05-18 16:29:19 51°19.244 2°54.572 -999 3.873165 32.068204 1.088875
2009-05-18 16:29:24 51°19.249 2°54.598 -999 3.873165 32.068204 1.123699
2009-05-18 16:29:29 51°19.254 2°54.623 -999 3.873165 32.069612 1.158523
2009-05-18 16:29:35 51°19.26 2°54.654 -999 3.873165 32.069612 1.158523
2009-05-18 16:29:39 51°19.264 2°54.674 -999 3.872647 32.065536 1.123699
2009-05-18 16:29:44 51°19.269 2°54.699 -999 3.872854 32.068857 1.158523
2009-05-18 16:29:49 51°19.273 2°54.725 -999 3.872439 32.06644 1.158523
2009-05-18 16:29:55 51°19.28 2°54.755 -999 3.872439 32.067145 1.158523
2009-05-18 16:29:59 51°19.283 2°54.776 -999 3.872439 32.067145 1.158523
2009-05-18 16:30:04 51°19.289 2°54.801 -999 3.872232 32.065232 1.193347
2009-05-18 16:30:09 51°19.293 2°54.826 -999 3.871714 32.062563 1.158523
2009-05-18 16:30:15 51°19.299 2°54.856 -999 3.871817 32.065633 1.158523
2009-05-18 16:30:19 51°19.303 2°54.876 -999 3.871299 32.06226 1.193347
2009-05-18 16:30:24 51°19.307 2°54.902 -999 3.871195 32.062712 1.193347
2009-05-18 16:30:29 51°19.313 2°54.926 -999 3.871195 32.062712 1.193347
2009-05-18 16:30:34 51°19.317 2°54.952 -999 3.871092 32.061756 1.228171
2009-05-18 16:30:39 51°19.322 2°54.977 -999 3.870988 32.060799 1.193347
2009-05-18 16:30:44 51°19.326 2°55.003 -999 3.870884 32.059843 1.228171
2009-05-18 16:30:49 51°19.331 2°55.029 -999 3.870677 32.058634 1.228171
2009-05-18 16:30:55 51°19.336 2°55.06 -999 3.870262 32.054809 1.262995
2009-05-18 16:30:59 51°19.34 2°55.08 -999 3.870366 32.057174 1.262995
2009-05-18 16:31:04 51°19.344 2°55.106 -999 3.870366 32.057174 1.262995
2009-05-18 16:31:09 51°19.349 2°55.132 -999 3.870159 32.054557 1.297819
2009-05-18 16:31:15 51°19.354 2°55.163 -999 3.869848 32.052391 1.297819
2009-05-18 16:31:19 51°19.358 2°55.184 -999 3.870055 32.055009 1.297819
2009-05-18 16:31:24 51°19.362 2°55.209 -999 3.869744 32.052139 1.332643
2009-05-18 16:31:29 51°19.367 2°55.235 -999 3.869744 32.052139 1.332643
2009-05-18 16:31:35 51°19.373 2°55.265 -999 3.869744 32.053548 1.332643
2009-05-18 16:31:39 51°19.376 2°55.285 -999 3.869537 32.052339 1.402292
2009-05-18 16:31:44 51°19.38 2°55.311 -999 3.868707 32.046096 1.402292
2009-05-18 16:31:49 51°19.386 2°55.336 -999 3.869122 32.050626 1.47194
2009-05-18 16:31:55 51°19.391 2°55.366 -999 3.869018 32.050374 1.47194
2009-05-18 16:31:59 51°19.395 2°55.387 -999 3.869018 32.050374 1.47194
2009-05-18 16:32:04 51°19.401 2°55.412 -999 3.868603 32.046548 1.506764
2009-05-18 16:32:09 51°19.405 2°55.437 -999 3.868707 32.048208 1.47194
2009-05-18 16:32:15 51°19.411 2°55.467 -999 3.868603 32.04866 1.506764
2009-05-18 16:32:19 51°19.416 2°55.487 -999 3.868189 32.044834 1.541588
2009-05-18 16:32:24 51°19.42 2°55.513 -999 3.868292 32.046495 1.506764
2009-05-18 16:32:29 51°19.425 2°55.538 -999 3.868085 32.044582 1.576412
2009-05-18 16:32:35 51°19.43 2°55.569 -999 3.868085 32.044582 1.576412
2009-05-18 16:32:39 51°19.434 2°55.589 -999 3.868189 32.046243 1.576412
2009-05-18 16:32:44 51°19.438 2°55.614 -999 3.86767 32.042164 1.611236
2009-05-18 16:32:49 51°19.444 2°55.639 -999 3.867463 32.04025 1.611236
2009-05-18 16:32:55 51°19.449 2°55.67 -999 3.867048 32.03572 1.576412
2009-05-18 16:32:59 51°19.453 2°55.69 -999 3.867567 32.039094 1.611236
2009-05-18 16:33:04 51°19.459 2°55.715 -999 3.867567 32.039094 1.611236
2009-05-18 16:33:09 51°19.462 2°55.741 -999 3.867152 32.034564 1.64606
2009-05-18 16:33:15 51°19.47 2°55.77 -999 3.867567 32.036982 1.611236
2009-05-18 16:33:19 51°19.472 2°55.791 -999 3.867463 32.034618 1.611236
2009-05-18 16:33:24 51°19.476 2°55.816 -999 3.868085 32.039653 1.64606
2009-05-18 16:33:29 51°19.482 2°55.841 -999 3.868085 32.039653 1.64606
2009-05-18 16:33:35 51°19.487 2°55.871 -999 3.868085 32.037541 1.64606
2009-05-18 16:33:39 51°19.491 2°55.891 -999 3.868085 32.036133 1.64606
2009-05-18 16:33:44 51°19.496 2°55.917 -999 3.868085 32.032614 1.64606
2009-05-18 16:33:49 51°19.501 2°55.943 -999 3.867981 32.03025 1.715708
2009-05-18 16:33:55 51°19.506 2°55.973 -999 3.868396 32.032668 1.680884
2009-05-18 16:33:59 51°19.511 2°55.993 -999 3.868396 32.032668 1.680884
2009-05-18 16:34:04 51°19.515 2°56.019 -999 3.86767 32.023161 1.611236
2009-05-18 16:34:09 51°19.52 2°56.045 -999 3.868396 32.02915 1.64606
2009-05-18 16:34:15 51°19.525 2°56.076 -999 3.868292 32.026787 1.680884
2009-05-18 16:34:19 51°19.528 2°56.097 -999 3.867359 32.016074 1.680884
2009-05-18 16:34:24 51°19.535 2°56.123 -999 3.867255 32.013712 1.64606
2009-05-18 16:34:29 51°19.539 2°56.147 -999 3.867255 32.013009 1.715708
2009-05-18 16:34:35 51°19.543 2°56.177 -999 3.867255 32.013009 1.715708
2009-05-18 16:34:39 51°19.548 2°56.198 -999 3.867255 32.0109 1.680884
2009-05-18 16:34:44 51°19.553 2°56.223 -999 3.867359 32.009747 1.680884
2009-05-18 16:34:49 51°19.557 2°56.247 -999 3.866218 31.997127 1.64606
2009-05-18 16:34:55 51°19.563 2°56.278 -999 3.867151 32.002215 1.64606
2009-05-18 16:34:59 51°19.567 2°56.298 -999 3.867151 32.000107 1.64606
2009-05-18 16:35:04 51°19.571 2°56.323 -999 3.867151 32.000107 1.64606
2009-05-18 16:35:09 51°19.575 2°56.348 -999 3.867048 31.99845 1.680884
2009-05-18 16:35:15 51°19.581 2°56.379 -999 3.866944 31.995387 1.64606
2009-05-18 16:35:19 51°19.584 2°56.399 -999 3.866737 31.992072 1.64606
2009-05-18 16:35:24 51°19.589 2°56.424 -999 3.865803 31.980667 1.680884
2009-05-18 16:35:29 51°19.594 2°56.449 -999 3.865803 31.980667 1.680884
2009-05-18 16:35:35 51°19.599 2°56.48 -999 3.866322 31.981934 1.715708
2009-05-18 16:35:39 51°19.603 2°56.5 -999 3.865181 31.968622 1.715708
2009-05-18 16:35:44 51°19.608 2°56.526 -999 3.86373 31.951047 1.785356
2009-05-18 16:35:49 51°19.612 2°56.551 -999 3.862693 31.937296 1.785356
2009-05-18 16:35:55 51°19.618 2°56.582 -999 3.861345 31.919986 1.855004
2009-05-18 16:35:59 51°19.623 2°56.602 -999 3.861345 31.919986 1.855004
2009-05-18 16:36:04 51°19.627 2°56.627 -999 3.859997 31.902682 1.855004
2009-05-18 16:36:09 51°19.631 2°56.652 -999 3.857612 31.876543 1.855004
2009-05-18 16:36:15 51°19.638 2°56.682 -999 3.85699 31.866628 1.889828
2009-05-18 16:36:19 51°19.64 2°56.702 -999 3.855953 31.852901 1.889828
2009-05-18 16:36:24 51°19.645 2°56.727 -999 3.855331 31.842992 1.889828
2009-05-18 16:36:29 51°19.649 2°56.753 -999 3.853983 31.82711 1.959476
2009-05-18 16:36:35 51°19.656 2°56.782 -999 3.853983 31.82711 1.959476
2009-05-18 16:36:39 51°19.658 2°56.802 -999 3.85305 31.815046 1.959476
2009-05-18 16:36:44 51°19.663 2°56.828 -999 3.851495 31.796569 1.9943
2009-05-18 16:36:49 51°19.668 2°56.853 -999 3.850665 31.78616 1.924652
2009-05-18 16:36:55 51°19.672 2°56.883 -999 3.849836 31.77645 1.959476
2009-05-18 16:36:59 51°19.676 2°56.902 -999 3.849836 31.77645 1.959476
2009-05-18 16:37:04 51°19.681 2°56.928 -999 3.849421 31.770552 1.959476
2009-05-18 16:37:09 51°19.685 2°56.954 -999 3.848177 31.756338 1.9943
2009-05-18 16:37:15 51°19.691 2°56.984 -999 3.847451 31.747585 2.063949
2009-05-18 16:37:19 51°19.693 2°57.004 -999 3.847244 31.743596 1.959476
2009-05-18 16:37:24 51°19.699 2°57.029 -999 3.846725 31.737444 2.029124
2009-05-18 16:37:29 51°19.704 2°57.055 -999 3.846725 31.737444 2.029124
2009-05-18 16:37:35 51°19.709 2°57.084 -999 3.845896 31.728436 2.063949
2009-05-18 16:37:39 51°19.712 2°57.105 -999 3.844859 31.71822 2.098773
2009-05-18 16:37:44 51°19.718 2°57.13 -999 3.844444 31.712329 2.063949
2009-05-18 16:37:49 51°19.722 2°57.155 -999 3.843718 31.704276 2.098773
2009-05-18 16:37:55 51°19.727 2°57.186 -999 3.842578 31.692417 2.063949
2009-05-18 16:37:59 51°19.732 2°57.206 -999 3.841749 31.684801 2.098773